<?xml version="1.0" encoding="UTF-8" standalone="no" ?>
<gpx xmlns="http://www.topografix.com/GPX/1/1" xmlns:xsi="http://www.w3.org/2001/XMLSchema-instance" xsi:schemaLocation="http://www.topografix.com/GPX/1/1 http://www.topografix.com/GPX/1/1/gpx.xsd" version="1.1" creator="VisuGPX - https://www.visugpx.com">
  <metadata>
    <name>VTTSO42K598M</name>
  </metadata>
  <trk>
    <name><![CDATA[La Chapelle-de-Guinchay VTT]]></name>
    <extensions>
      <line xmlns="http://www.topografix.com/GPX/gpx_style/0/2">
        <color>0000FF</color>
        <width>4</width>
      </line>
    </extensions>
    <trkseg>
      <trkpt lat="46.21227" lon="4.75632">
        <ele>192.6</ele>
        <time>2021-10-13T12:39:50.000Z</time>
      </trkpt>
      <trkpt lat="46.21238" lon="4.75613">
        <ele>193.19999694824</ele>
        <time>2021-10-13T12:41:30.000Z</time>
      </trkpt>
      <trkpt lat="46.21207" lon="4.7559">
        <ele>194.60000610352</ele>
        <time>2021-10-13T12:41:37.000Z</time>
      </trkpt>
      <trkpt lat="46.21171" lon="4.75559">
        <ele>199.19999694824</ele>
        <time>2021-10-13T12:41:46.000Z</time>
      </trkpt>
      <trkpt lat="46.21159" lon="4.75553">
        <ele>200.39999389648</ele>
        <time>2021-10-13T12:41:49.000Z</time>
      </trkpt>
      <trkpt lat="46.21119" lon="4.75527">
        <ele>204.19999694824</ele>
        <time>2021-10-13T12:41:59.000Z</time>
      </trkpt>
      <trkpt lat="46.21101" lon="4.75513">
        <ele>206</ele>
        <time>2021-10-13T12:42:04.000Z</time>
      </trkpt>
      <trkpt lat="46.21092" lon="4.7548">
        <ele>207.39999389648</ele>
        <time>2021-10-13T12:42:10.000Z</time>
      </trkpt>
      <trkpt lat="46.21097" lon="4.75408">
        <ele>208.80000305176</ele>
        <time>2021-10-13T12:42:22.000Z</time>
      </trkpt>
      <trkpt lat="46.21076" lon="4.75393">
        <ele>208</ele>
        <time>2021-10-13T12:42:27.000Z</time>
      </trkpt>
      <trkpt lat="46.20995" lon="4.75339">
        <ele>203.19999694824</ele>
        <time>2021-10-13T12:42:40.000Z</time>
      </trkpt>
      <trkpt lat="46.20945" lon="4.75307">
        <ele>198.39999389648</ele>
        <time>2021-10-13T12:42:46.000Z</time>
      </trkpt>
      <trkpt lat="46.20909" lon="4.75281">
        <ele>195</ele>
        <time>2021-10-13T12:42:50.000Z</time>
      </trkpt>
      <trkpt lat="46.20864" lon="4.75222">
        <ele>191.60000610352</ele>
        <time>2021-10-13T12:42:56.000Z</time>
      </trkpt>
      <trkpt lat="46.20835" lon="4.75179">
        <ele>192</ele>
        <time>2021-10-13T12:43:00.000Z</time>
      </trkpt>
      <trkpt lat="46.20792" lon="4.75126">
        <ele>191.80000305176</ele>
        <time>2021-10-13T12:43:06.000Z</time>
      </trkpt>
      <trkpt lat="46.20662" lon="4.74981">
        <ele>188.19999694824</ele>
        <time>2021-10-13T12:43:26.000Z</time>
      </trkpt>
      <trkpt lat="46.20579" lon="4.74868">
        <ele>190</ele>
        <time>2021-10-13T12:43:44.000Z</time>
      </trkpt>
      <trkpt lat="46.20512" lon="4.74765">
        <ele>195.80000305176</ele>
        <time>2021-10-13T12:44:03.000Z</time>
      </trkpt>
      <trkpt lat="46.20493" lon="4.74735">
        <ele>198.60000610352</ele>
        <time>2021-10-13T12:44:11.000Z</time>
      </trkpt>
      <trkpt lat="46.20477" lon="4.74737">
        <ele>199</ele>
        <time>2021-10-13T12:44:16.000Z</time>
      </trkpt>
      <trkpt lat="46.20435" lon="4.74739">
        <ele>199.60000610352</ele>
        <time>2021-10-13T12:44:27.000Z</time>
      </trkpt>
      <trkpt lat="46.20374" lon="4.74731">
        <ele>197.80000305176</ele>
        <time>2021-10-13T12:44:41.000Z</time>
      </trkpt>
      <trkpt lat="46.2034" lon="4.74716">
        <ele>195.60000610352</ele>
        <time>2021-10-13T12:44:52.000Z</time>
      </trkpt>
      <trkpt lat="46.20309" lon="4.747">
        <ele>193.39999389648</ele>
        <time>2021-10-13T12:44:58.000Z</time>
      </trkpt>
      <trkpt lat="46.20304" lon="4.74699">
        <ele>193.19999694824</ele>
        <time>2021-10-13T12:44:59.000Z</time>
      </trkpt>
      <trkpt lat="46.2028" lon="4.74696">
        <ele>192.39999389648</ele>
        <time>2021-10-13T12:45:05.000Z</time>
      </trkpt>
      <trkpt lat="46.20256" lon="4.74701">
        <ele>192</ele>
        <time>2021-10-13T12:45:10.000Z</time>
      </trkpt>
      <trkpt lat="46.20194" lon="4.74697">
        <ele>188.80000305176</ele>
        <time>2021-10-13T12:45:22.000Z</time>
      </trkpt>
      <trkpt lat="46.2012" lon="4.74664">
        <ele>187</ele>
        <time>2021-10-13T12:45:37.000Z</time>
      </trkpt>
      <trkpt lat="46.201" lon="4.74648">
        <ele>186.80000305176</ele>
        <time>2021-10-13T12:45:43.000Z</time>
      </trkpt>
      <trkpt lat="46.20085" lon="4.74649">
        <ele>186.19999694824</ele>
        <time>2021-10-13T12:45:48.000Z</time>
      </trkpt>
      <trkpt lat="46.20064" lon="4.74639">
        <ele>185.19999694824</ele>
        <time>2021-10-13T12:45:53.000Z</time>
      </trkpt>
      <trkpt lat="46.20032" lon="4.74643">
        <ele>183.39999389648</ele>
        <time>2021-10-13T12:46:02.000Z</time>
      </trkpt>
      <trkpt lat="46.20033" lon="4.74669">
        <ele>184.39999389648</ele>
        <time>2021-10-13T12:46:07.000Z</time>
      </trkpt>
      <trkpt lat="46.20033" lon="4.74717">
        <ele>185</ele>
        <time>2021-10-13T12:46:13.000Z</time>
      </trkpt>
      <trkpt lat="46.2001" lon="4.74874">
        <ele>181.60000610352</ele>
        <time>2021-10-13T12:46:31.000Z</time>
      </trkpt>
      <trkpt lat="46.19992" lon="4.74991">
        <ele>181</ele>
        <time>2021-10-13T12:46:45.000Z</time>
      </trkpt>
      <trkpt lat="46.19973" lon="4.75002">
        <ele>181</ele>
        <time>2021-10-13T12:46:50.000Z</time>
      </trkpt>
      <trkpt lat="46.19888" lon="4.74936">
        <ele>180</ele>
        <time>2021-10-13T12:47:05.000Z</time>
      </trkpt>
      <trkpt lat="46.19782" lon="4.74857">
        <ele>179.39999389648</ele>
        <time>2021-10-13T12:47:23.000Z</time>
      </trkpt>
      <trkpt lat="46.19708" lon="4.74785">
        <ele>178.39999389648</ele>
        <time>2021-10-13T12:47:37.000Z</time>
      </trkpt>
      <trkpt lat="46.19658" lon="4.747">
        <ele>178</ele>
        <time>2021-10-13T12:47:50.000Z</time>
      </trkpt>
      <trkpt lat="46.1959" lon="4.74634">
        <ele>179.39999389648</ele>
        <time>2021-10-13T12:48:04.000Z</time>
      </trkpt>
      <trkpt lat="46.19514" lon="4.74566">
        <ele>179</ele>
        <time>2021-10-13T12:48:19.000Z</time>
      </trkpt>
      <trkpt lat="46.19461" lon="4.74504">
        <ele>178.19999694824</ele>
        <time>2021-10-13T12:48:31.000Z</time>
      </trkpt>
      <trkpt lat="46.19441" lon="4.74492">
        <ele>179.39999389648</ele>
        <time>2021-10-13T12:48:35.000Z</time>
      </trkpt>
      <trkpt lat="46.19406" lon="4.74479">
        <ele>181</ele>
        <time>2021-10-13T12:48:42.000Z</time>
      </trkpt>
      <trkpt lat="46.19401" lon="4.74454">
        <ele>182</ele>
        <time>2021-10-13T12:48:47.000Z</time>
      </trkpt>
      <trkpt lat="46.19413" lon="4.7441">
        <ele>182</ele>
        <time>2021-10-13T12:48:53.000Z</time>
      </trkpt>
      <trkpt lat="46.19415" lon="4.74379">
        <ele>182</ele>
        <time>2021-10-13T12:48:57.000Z</time>
      </trkpt>
      <trkpt lat="46.19406" lon="4.74325">
        <ele>183.39999389648</ele>
        <time>2021-10-13T12:49:04.000Z</time>
      </trkpt>
      <trkpt lat="46.19389" lon="4.74296">
        <ele>183.80000305176</ele>
        <time>2021-10-13T12:49:09.000Z</time>
      </trkpt>
      <trkpt lat="46.19364" lon="4.74276">
        <ele>184</ele>
        <time>2021-10-13T12:49:14.000Z</time>
      </trkpt>
      <trkpt lat="46.19327" lon="4.74244">
        <ele>184.39999389648</ele>
        <time>2021-10-13T12:49:22.000Z</time>
      </trkpt>
      <trkpt lat="46.19317" lon="4.74237">
        <ele>184.80000305176</ele>
        <time>2021-10-13T12:49:24.000Z</time>
      </trkpt>
      <trkpt lat="46.19287" lon="4.74213">
        <ele>185.60000610352</ele>
        <time>2021-10-13T12:49:30.000Z</time>
      </trkpt>
      <trkpt lat="46.19271" lon="4.74194">
        <ele>186</ele>
        <time>2021-10-13T12:49:34.000Z</time>
      </trkpt>
      <trkpt lat="46.19263" lon="4.74174">
        <ele>186</ele>
        <time>2021-10-13T12:49:37.000Z</time>
      </trkpt>
      <trkpt lat="46.19261" lon="4.74167">
        <ele>186</ele>
        <time>2021-10-13T12:49:38.000Z</time>
      </trkpt>
      <trkpt lat="46.1926" lon="4.74159">
        <ele>186</ele>
        <time>2021-10-13T12:49:39.000Z</time>
      </trkpt>
      <trkpt lat="46.19256" lon="4.74122">
        <ele>186</ele>
        <time>2021-10-13T12:49:44.000Z</time>
      </trkpt>
      <trkpt lat="46.19254" lon="4.74115">
        <ele>185.80000305176</ele>
        <time>2021-10-13T12:49:45.000Z</time>
      </trkpt>
      <trkpt lat="46.19251" lon="4.74108">
        <ele>185.60000610352</ele>
        <time>2021-10-13T12:49:46.000Z</time>
      </trkpt>
      <trkpt lat="46.19232" lon="4.7406">
        <ele>184.19999694824</ele>
        <time>2021-10-13T12:49:53.000Z</time>
      </trkpt>
      <trkpt lat="46.1923" lon="4.74029">
        <ele>184</ele>
        <time>2021-10-13T12:49:57.000Z</time>
      </trkpt>
      <trkpt lat="46.19238" lon="4.73978">
        <ele>185.19999694824</ele>
        <time>2021-10-13T12:50:07.000Z</time>
      </trkpt>
      <trkpt lat="46.19238" lon="4.73979">
        <ele>185.19999694824</ele>
        <time>2021-10-13T12:50:10.000Z</time>
      </trkpt>
      <trkpt lat="46.19231" lon="4.73969">
        <ele>185.80000305176</ele>
        <time>2021-10-13T12:50:26.000Z</time>
      </trkpt>
      <trkpt lat="46.1922" lon="4.73969">
        <ele>186.19999694824</ele>
        <time>2021-10-13T12:50:29.000Z</time>
      </trkpt>
      <trkpt lat="46.19217" lon="4.73973">
        <ele>186.19999694824</ele>
        <time>2021-10-13T12:50:30.000Z</time>
      </trkpt>
      <trkpt lat="46.19216" lon="4.73978">
        <ele>186</ele>
        <time>2021-10-13T12:50:31.000Z</time>
      </trkpt>
      <trkpt lat="46.19216" lon="4.73985">
        <ele>185.60000610352</ele>
        <time>2021-10-13T12:50:32.000Z</time>
      </trkpt>
      <trkpt lat="46.19216" lon="4.73992">
        <ele>185</ele>
        <time>2021-10-13T12:50:33.000Z</time>
      </trkpt>
      <trkpt lat="46.19216" lon="4.73999">
        <ele>184.60000610352</ele>
        <time>2021-10-13T12:50:34.000Z</time>
      </trkpt>
      <trkpt lat="46.19213" lon="4.74043">
        <ele>184.39999389648</ele>
        <time>2021-10-13T12:50:40.000Z</time>
      </trkpt>
      <trkpt lat="46.19217" lon="4.74084">
        <ele>185.60000610352</ele>
        <time>2021-10-13T12:50:46.000Z</time>
      </trkpt>
      <trkpt lat="46.19224" lon="4.7414">
        <ele>186</ele>
        <time>2021-10-13T12:50:54.000Z</time>
      </trkpt>
      <trkpt lat="46.19221" lon="4.74166">
        <ele>185.60000610352</ele>
        <time>2021-10-13T12:50:58.000Z</time>
      </trkpt>
      <trkpt lat="46.19209" lon="4.74207">
        <ele>183.80000305176</ele>
        <time>2021-10-13T12:51:05.000Z</time>
      </trkpt>
      <trkpt lat="46.19206" lon="4.74212">
        <ele>183.80000305176</ele>
        <time>2021-10-13T12:51:06.000Z</time>
      </trkpt>
      <trkpt lat="46.19203" lon="4.74215">
        <ele>183.60000610352</ele>
        <time>2021-10-13T12:51:07.000Z</time>
      </trkpt>
      <trkpt lat="46.19198" lon="4.74218">
        <ele>183.39999389648</ele>
        <time>2021-10-13T12:51:08.000Z</time>
      </trkpt>
      <trkpt lat="46.19193" lon="4.74219">
        <ele>183.19999694824</ele>
        <time>2021-10-13T12:51:09.000Z</time>
      </trkpt>
      <trkpt lat="46.19188" lon="4.74219">
        <ele>183</ele>
        <time>2021-10-13T12:51:10.000Z</time>
      </trkpt>
      <trkpt lat="46.19075" lon="4.74217">
        <ele>188</ele>
        <time>2021-10-13T12:51:32.000Z</time>
      </trkpt>
      <trkpt lat="46.18977" lon="4.74206">
        <ele>189.19999694824</ele>
        <time>2021-10-13T12:51:51.000Z</time>
      </trkpt>
      <trkpt lat="46.1888" lon="4.74193">
        <ele>189</ele>
        <time>2021-10-13T12:52:09.000Z</time>
      </trkpt>
      <trkpt lat="46.1887" lon="4.74191">
        <ele>188.60000610352</ele>
        <time>2021-10-13T12:52:11.000Z</time>
      </trkpt>
      <trkpt lat="46.18801" lon="4.74167">
        <ele>187.80000305176</ele>
        <time>2021-10-13T12:52:26.000Z</time>
      </trkpt>
      <trkpt lat="46.18814" lon="4.74097">
        <ele>187.39999389648</ele>
        <time>2021-10-13T12:52:36.000Z</time>
      </trkpt>
      <trkpt lat="46.18856" lon="4.73942">
        <ele>190.39999389648</ele>
        <time>2021-10-13T12:52:57.000Z</time>
      </trkpt>
      <trkpt lat="46.1886" lon="4.73923">
        <ele>191.19999694824</ele>
        <time>2021-10-13T12:53:03.000Z</time>
      </trkpt>
      <trkpt lat="46.18847" lon="4.7392">
        <ele>191.19999694824</ele>
        <time>2021-10-13T12:53:11.000Z</time>
      </trkpt>
      <trkpt lat="46.1883" lon="4.73932">
        <ele>191.39999389648</ele>
        <time>2021-10-13T12:53:15.000Z</time>
      </trkpt>
      <trkpt lat="46.18817" lon="4.73917">
        <ele>192.19999694824</ele>
        <time>2021-10-13T12:53:20.000Z</time>
      </trkpt>
      <trkpt lat="46.18823" lon="4.73785">
        <ele>194</ele>
        <time>2021-10-13T12:53:39.000Z</time>
      </trkpt>
      <trkpt lat="46.18825" lon="4.73706">
        <ele>195</ele>
        <time>2021-10-13T12:53:51.000Z</time>
      </trkpt>
      <trkpt lat="46.1881" lon="4.73696">
        <ele>196</ele>
        <time>2021-10-13T12:53:55.000Z</time>
      </trkpt>
      <trkpt lat="46.188" lon="4.73697">
        <ele>196.80000305176</ele>
        <time>2021-10-13T12:53:57.000Z</time>
      </trkpt>
      <trkpt lat="46.18771" lon="4.73658">
        <ele>198</ele>
        <time>2021-10-13T12:54:06.000Z</time>
      </trkpt>
      <trkpt lat="46.18771" lon="4.73644">
        <ele>198</ele>
        <time>2021-10-13T12:54:08.000Z</time>
      </trkpt>
      <trkpt lat="46.18772" lon="4.73622">
        <ele>197.80000305176</ele>
        <time>2021-10-13T12:54:11.000Z</time>
      </trkpt>
      <trkpt lat="46.18767" lon="4.73594">
        <ele>200</ele>
        <time>2021-10-13T12:54:19.000Z</time>
      </trkpt>
      <trkpt lat="46.18759" lon="4.73594">
        <ele>200.80000305176</ele>
        <time>2021-10-13T12:54:21.000Z</time>
      </trkpt>
      <trkpt lat="46.18739" lon="4.73596">
        <ele>202.80000305176</ele>
        <time>2021-10-13T12:54:25.000Z</time>
      </trkpt>
      <trkpt lat="46.18654" lon="4.73616">
        <ele>204</ele>
        <time>2021-10-13T12:54:42.000Z</time>
      </trkpt>
      <trkpt lat="46.18622" lon="4.73625">
        <ele>202.80000305176</ele>
        <time>2021-10-13T12:54:51.000Z</time>
      </trkpt>
      <trkpt lat="46.18619" lon="4.73612">
        <ele>203.39999389648</ele>
        <time>2021-10-13T12:54:56.000Z</time>
      </trkpt>
      <trkpt lat="46.18607" lon="4.73555">
        <ele>206.60000610352</ele>
        <time>2021-10-13T12:55:08.000Z</time>
      </trkpt>
      <trkpt lat="46.18604" lon="4.73552">
        <ele>206.80000305176</ele>
        <time>2021-10-13T12:55:09.000Z</time>
      </trkpt>
      <trkpt lat="46.18593" lon="4.73545">
        <ele>207.19999694824</ele>
        <time>2021-10-13T12:55:12.000Z</time>
      </trkpt>
      <trkpt lat="46.18573" lon="4.73541">
        <ele>207.80000305176</ele>
        <time>2021-10-13T12:55:16.000Z</time>
      </trkpt>
      <trkpt lat="46.18568" lon="4.73542">
        <ele>207.39999389648</ele>
        <time>2021-10-13T12:55:17.000Z</time>
      </trkpt>
      <trkpt lat="46.18557" lon="4.73543">
        <ele>207</ele>
        <time>2021-10-13T12:55:19.000Z</time>
      </trkpt>
      <trkpt lat="46.18516" lon="4.73525">
        <ele>203.80000305176</ele>
        <time>2021-10-13T12:55:29.000Z</time>
      </trkpt>
      <trkpt lat="46.18505" lon="4.73521">
        <ele>203</ele>
        <time>2021-10-13T12:55:31.000Z</time>
      </trkpt>
      <trkpt lat="46.18483" lon="4.73519">
        <ele>201.80000305176</ele>
        <time>2021-10-13T12:55:35.000Z</time>
      </trkpt>
      <trkpt lat="46.18396" lon="4.73502">
        <ele>196.80000305176</ele>
        <time>2021-10-13T12:55:50.000Z</time>
      </trkpt>
      <trkpt lat="46.18394" lon="4.73499">
        <ele>196.80000305176</ele>
        <time>2021-10-13T12:55:51.000Z</time>
      </trkpt>
      <trkpt lat="46.18393" lon="4.73496">
        <ele>196.80000305176</ele>
        <time>2021-10-13T12:55:52.000Z</time>
      </trkpt>
      <trkpt lat="46.18395" lon="4.73482">
        <ele>197</ele>
        <time>2021-10-13T12:55:55.000Z</time>
      </trkpt>
      <trkpt lat="46.18398" lon="4.73477">
        <ele>197</ele>
        <time>2021-10-13T12:55:56.000Z</time>
      </trkpt>
      <trkpt lat="46.18417" lon="4.73443">
        <ele>197.80000305176</ele>
        <time>2021-10-13T12:56:02.000Z</time>
      </trkpt>
      <trkpt lat="46.18415" lon="4.73416">
        <ele>199.19999694824</ele>
        <time>2021-10-13T12:56:07.000Z</time>
      </trkpt>
      <trkpt lat="46.184" lon="4.7338">
        <ele>200.19999694824</ele>
        <time>2021-10-13T12:56:14.000Z</time>
      </trkpt>
      <trkpt lat="46.18386" lon="4.73367">
        <ele>200.19999694824</ele>
        <time>2021-10-13T12:56:18.000Z</time>
      </trkpt>
      <trkpt lat="46.18366" lon="4.73361">
        <ele>200.19999694824</ele>
        <time>2021-10-13T12:56:24.000Z</time>
      </trkpt>
      <trkpt lat="46.18355" lon="4.73383">
        <ele>199.39999389648</ele>
        <time>2021-10-13T12:56:29.000Z</time>
      </trkpt>
      <trkpt lat="46.18334" lon="4.7341">
        <ele>199.80000305176</ele>
        <time>2021-10-13T12:56:37.000Z</time>
      </trkpt>
      <trkpt lat="46.18289" lon="4.73396">
        <ele>203.19999694824</ele>
        <time>2021-10-13T12:56:49.000Z</time>
      </trkpt>
      <trkpt lat="46.18293" lon="4.7335">
        <ele>204.80000305176</ele>
        <time>2021-10-13T12:56:59.000Z</time>
      </trkpt>
      <trkpt lat="46.1831" lon="4.73289">
        <ele>204.80000305176</ele>
        <time>2021-10-13T12:57:11.000Z</time>
      </trkpt>
      <trkpt lat="46.18312" lon="4.73278">
        <ele>205.19999694824</ele>
        <time>2021-10-13T12:57:13.000Z</time>
      </trkpt>
      <trkpt lat="46.18329" lon="4.73173">
        <ele>208.80000305176</ele>
        <time>2021-10-13T12:57:32.000Z</time>
      </trkpt>
      <trkpt lat="46.18317" lon="4.73159">
        <ele>209.80000305176</ele>
        <time>2021-10-13T12:57:37.000Z</time>
      </trkpt>
      <trkpt lat="46.1832" lon="4.73121">
        <ele>210.39999389648</ele>
        <time>2021-10-13T12:57:45.000Z</time>
      </trkpt>
      <trkpt lat="46.18335" lon="4.73037">
        <ele>210.80000305176</ele>
        <time>2021-10-13T12:58:01.000Z</time>
      </trkpt>
      <trkpt lat="46.18337" lon="4.73016">
        <ele>211.19999694824</ele>
        <time>2021-10-13T12:58:05.000Z</time>
      </trkpt>
      <trkpt lat="46.18327" lon="4.73006">
        <ele>212.60000610352</ele>
        <time>2021-10-13T12:58:09.000Z</time>
      </trkpt>
      <trkpt lat="46.18268" lon="4.72964">
        <ele>214.39999389648</ele>
        <time>2021-10-13T12:58:26.000Z</time>
      </trkpt>
      <trkpt lat="46.18236" lon="4.72931">
        <ele>214.19999694824</ele>
        <time>2021-10-13T12:58:37.000Z</time>
      </trkpt>
      <trkpt lat="46.18145" lon="4.72878">
        <ele>215</ele>
        <time>2021-10-13T12:58:53.000Z</time>
      </trkpt>
      <trkpt lat="46.18076" lon="4.72803">
        <ele>214.60000610352</ele>
        <time>2021-10-13T12:59:06.000Z</time>
      </trkpt>
      <trkpt lat="46.17994" lon="4.72688">
        <ele>213.80000305176</ele>
        <time>2021-10-13T12:59:24.000Z</time>
      </trkpt>
      <trkpt lat="46.17948" lon="4.72627">
        <ele>214</ele>
        <time>2021-10-13T12:59:37.000Z</time>
      </trkpt>
      <trkpt lat="46.17944" lon="4.72624">
        <ele>214</ele>
        <time>2021-10-13T12:59:38.000Z</time>
      </trkpt>
      <trkpt lat="46.17895" lon="4.72555">
        <ele>214</ele>
        <time>2021-10-13T12:59:50.000Z</time>
      </trkpt>
      <trkpt lat="46.17885" lon="4.72541">
        <ele>214</ele>
        <time>2021-10-13T12:59:53.000Z</time>
      </trkpt>
      <trkpt lat="46.17873" lon="4.72574">
        <ele>214</ele>
        <time>2021-10-13T13:00:00.000Z</time>
      </trkpt>
      <trkpt lat="46.1787" lon="4.72581">
        <ele>214</ele>
        <time>2021-10-13T13:00:01.000Z</time>
      </trkpt>
      <trkpt lat="46.17852" lon="4.72618">
        <ele>212</ele>
        <time>2021-10-13T13:00:06.000Z</time>
      </trkpt>
      <trkpt lat="46.17803" lon="4.72704">
        <ele>208.39999389648</ele>
        <time>2021-10-13T13:00:18.000Z</time>
      </trkpt>
      <trkpt lat="46.17795" lon="4.72717">
        <ele>208</ele>
        <time>2021-10-13T13:00:20.000Z</time>
      </trkpt>
      <trkpt lat="46.17745" lon="4.72851">
        <ele>206.19999694824</ele>
        <time>2021-10-13T13:00:37.000Z</time>
      </trkpt>
      <trkpt lat="46.17712" lon="4.72946">
        <ele>205</ele>
        <time>2021-10-13T13:00:52.000Z</time>
      </trkpt>
      <trkpt lat="46.1771" lon="4.72952">
        <ele>205</ele>
        <time>2021-10-13T13:00:53.000Z</time>
      </trkpt>
      <trkpt lat="46.17705" lon="4.72964">
        <ele>205.39999389648</ele>
        <time>2021-10-13T13:00:55.000Z</time>
      </trkpt>
      <trkpt lat="46.17695" lon="4.72991">
        <ele>206</ele>
        <time>2021-10-13T13:00:59.000Z</time>
      </trkpt>
      <trkpt lat="46.17688" lon="4.73016">
        <ele>206.39999389648</ele>
        <time>2021-10-13T13:01:04.000Z</time>
      </trkpt>
      <trkpt lat="46.17676" lon="4.72992">
        <ele>205.60000610352</ele>
        <time>2021-10-13T13:01:12.000Z</time>
      </trkpt>
      <trkpt lat="46.17644" lon="4.7291">
        <ele>201.60000610352</ele>
        <time>2021-10-13T13:01:26.000Z</time>
      </trkpt>
      <trkpt lat="46.17614" lon="4.72835">
        <ele>198.39999389648</ele>
        <time>2021-10-13T13:01:35.000Z</time>
      </trkpt>
      <trkpt lat="46.17599" lon="4.72796">
        <ele>197.80000305176</ele>
        <time>2021-10-13T13:01:40.000Z</time>
      </trkpt>
      <trkpt lat="46.17596" lon="4.72789">
        <ele>197.60000610352</ele>
        <time>2021-10-13T13:01:41.000Z</time>
      </trkpt>
      <trkpt lat="46.17586" lon="4.72756">
        <ele>198.80000305176</ele>
        <time>2021-10-13T13:01:46.000Z</time>
      </trkpt>
      <trkpt lat="46.17577" lon="4.7272">
        <ele>199.39999389648</ele>
        <time>2021-10-13T13:01:52.000Z</time>
      </trkpt>
      <trkpt lat="46.17563" lon="4.72717">
        <ele>198.19999694824</ele>
        <time>2021-10-13T13:01:56.000Z</time>
      </trkpt>
      <trkpt lat="46.17493" lon="4.7269">
        <ele>193.19999694824</ele>
        <time>2021-10-13T13:02:08.000Z</time>
      </trkpt>
      <trkpt lat="46.17485" lon="4.72679">
        <ele>192.80000305176</ele>
        <time>2021-10-13T13:02:11.000Z</time>
      </trkpt>
      <trkpt lat="46.17484" lon="4.72674">
        <ele>192.80000305176</ele>
        <time>2021-10-13T13:02:12.000Z</time>
      </trkpt>
      <trkpt lat="46.17483" lon="4.72669">
        <ele>192.80000305176</ele>
        <time>2021-10-13T13:02:13.000Z</time>
      </trkpt>
      <trkpt lat="46.17482" lon="4.72665">
        <ele>192.60000610352</ele>
        <time>2021-10-13T13:02:14.000Z</time>
      </trkpt>
      <trkpt lat="46.1748" lon="4.72661">
        <ele>192.60000610352</ele>
        <time>2021-10-13T13:02:15.000Z</time>
      </trkpt>
      <trkpt lat="46.17477" lon="4.72658">
        <ele>192.39999389648</ele>
        <time>2021-10-13T13:02:16.000Z</time>
      </trkpt>
      <trkpt lat="46.17473" lon="4.72656">
        <ele>192.39999389648</ele>
        <time>2021-10-13T13:02:17.000Z</time>
      </trkpt>
      <trkpt lat="46.1747" lon="4.72653">
        <ele>192.19999694824</ele>
        <time>2021-10-13T13:02:18.000Z</time>
      </trkpt>
      <trkpt lat="46.17443" lon="4.7262">
        <ele>193.60000610352</ele>
        <time>2021-10-13T13:02:25.000Z</time>
      </trkpt>
      <trkpt lat="46.17427" lon="4.72591">
        <ele>194.60000610352</ele>
        <time>2021-10-13T13:02:30.000Z</time>
      </trkpt>
      <trkpt lat="46.1737" lon="4.72528">
        <ele>197.60000610352</ele>
        <time>2021-10-13T13:02:43.000Z</time>
      </trkpt>
      <trkpt lat="46.17308" lon="4.72484">
        <ele>200.80000305176</ele>
        <time>2021-10-13T13:02:57.000Z</time>
      </trkpt>
      <trkpt lat="46.17285" lon="4.72473">
        <ele>201</ele>
        <time>2021-10-13T13:03:02.000Z</time>
      </trkpt>
      <trkpt lat="46.17276" lon="4.72468">
        <ele>201</ele>
        <time>2021-10-13T13:03:04.000Z</time>
      </trkpt>
      <trkpt lat="46.17208" lon="4.72434">
        <ele>202.39999389648</ele>
        <time>2021-10-13T13:03:20.000Z</time>
      </trkpt>
      <trkpt lat="46.17204" lon="4.72429">
        <ele>202.60000610352</ele>
        <time>2021-10-13T13:03:22.000Z</time>
      </trkpt>
      <trkpt lat="46.17185" lon="4.72425">
        <ele>204</ele>
        <time>2021-10-13T13:03:27.000Z</time>
      </trkpt>
      <trkpt lat="46.17116" lon="4.72401">
        <ele>208.80000305176</ele>
        <time>2021-10-13T13:03:42.000Z</time>
      </trkpt>
      <trkpt lat="46.17092" lon="4.72391">
        <ele>210.19999694824</ele>
        <time>2021-10-13T13:03:47.000Z</time>
      </trkpt>
      <trkpt lat="46.17083" lon="4.72387">
        <ele>210.19999694824</ele>
        <time>2021-10-13T13:03:49.000Z</time>
      </trkpt>
      <trkpt lat="46.17064" lon="4.72384">
        <ele>209.60000610352</ele>
        <time>2021-10-13T13:03:53.000Z</time>
      </trkpt>
      <trkpt lat="46.17042" lon="4.72376">
        <ele>208.80000305176</ele>
        <time>2021-10-13T13:03:58.000Z</time>
      </trkpt>
      <trkpt lat="46.17028" lon="4.72379">
        <ele>208.19999694824</ele>
        <time>2021-10-13T13:04:01.000Z</time>
      </trkpt>
      <trkpt lat="46.16982" lon="4.72371">
        <ele>208.19999694824</ele>
        <time>2021-10-13T13:04:13.000Z</time>
      </trkpt>
      <trkpt lat="46.16908" lon="4.72343">
        <ele>208</ele>
        <time>2021-10-13T13:04:29.000Z</time>
      </trkpt>
      <trkpt lat="46.169" lon="4.72366">
        <ele>208</ele>
        <time>2021-10-13T13:04:34.000Z</time>
      </trkpt>
      <trkpt lat="46.16908" lon="4.72482">
        <ele>209.80000305176</ele>
        <time>2021-10-13T13:04:48.000Z</time>
      </trkpt>
      <trkpt lat="46.16911" lon="4.72549">
        <ele>207</ele>
        <time>2021-10-13T13:04:56.000Z</time>
      </trkpt>
      <trkpt lat="46.16912" lon="4.72571">
        <ele>205.4</ele>
        <time>2021-10-13T13:04:58.000Z</time>
      </trkpt>
      <trkpt lat="46.16922" lon="4.72611">
        <ele>206</ele>
        <time>2021-10-13T13:05:04.000Z</time>
      </trkpt>
      <trkpt lat="46.16925" lon="4.72684">
        <ele>206.39999389648</ele>
        <time>2021-10-13T13:05:13.000Z</time>
      </trkpt>
      <trkpt lat="46.16919" lon="4.72739">
        <ele>205.60000610352</ele>
        <time>2021-10-13T13:05:20.000Z</time>
      </trkpt>
      <trkpt lat="46.16907" lon="4.72746">
        <ele>204.60000610352</ele>
        <time>2021-10-13T13:05:24.000Z</time>
      </trkpt>
      <trkpt lat="46.16893" lon="4.72744">
        <ele>204.39999389648</ele>
        <time>2021-10-13T13:05:27.000Z</time>
      </trkpt>
      <trkpt lat="46.16874" lon="4.72739">
        <ele>204.60000610352</ele>
        <time>2021-10-13T13:05:31.000Z</time>
      </trkpt>
      <trkpt lat="46.16851" lon="4.7272">
        <ele>205.19999694824</ele>
        <time>2021-10-13T13:05:37.000Z</time>
      </trkpt>
      <trkpt lat="46.16819" lon="4.72711">
        <ele>205.19999694824</ele>
        <time>2021-10-13T13:05:44.000Z</time>
      </trkpt>
      <trkpt lat="46.16804" lon="4.7271">
        <ele>205.60000610352</ele>
        <time>2021-10-13T13:05:48.000Z</time>
      </trkpt>
      <trkpt lat="46.16795" lon="4.72711">
        <ele>205.60000610352</ele>
        <time>2021-10-13T13:05:50.000Z</time>
      </trkpt>
      <trkpt lat="46.16745" lon="4.72734">
        <ele>204.80000305176</ele>
        <time>2021-10-13T13:06:03.000Z</time>
      </trkpt>
      <trkpt lat="46.1673" lon="4.72732">
        <ele>204</ele>
        <time>2021-10-13T13:06:07.000Z</time>
      </trkpt>
      <trkpt lat="46.16679" lon="4.72718">
        <ele>202.39999389648</ele>
        <time>2021-10-13T13:06:17.000Z</time>
      </trkpt>
      <trkpt lat="46.16662" lon="4.72712">
        <ele>202.80000305176</ele>
        <time>2021-10-13T13:06:21.000Z</time>
      </trkpt>
      <trkpt lat="46.16614" lon="4.72683">
        <ele>204</ele>
        <time>2021-10-13T13:06:33.000Z</time>
      </trkpt>
      <trkpt lat="46.16614" lon="4.72657">
        <ele>204</ele>
        <time>2021-10-13T13:06:38.000Z</time>
      </trkpt>
      <trkpt lat="46.16621" lon="4.7252">
        <ele>204.19999694824</ele>
        <time>2021-10-13T13:06:57.000Z</time>
      </trkpt>
      <trkpt lat="46.1666" lon="4.72409">
        <ele>206</ele>
        <time>2021-10-13T13:07:14.000Z</time>
      </trkpt>
      <trkpt lat="46.16663" lon="4.72379">
        <ele>207</ele>
        <time>2021-10-13T13:07:18.000Z</time>
      </trkpt>
      <trkpt lat="46.16676" lon="4.72228">
        <ele>206.60000610352</ele>
        <time>2021-10-13T13:07:38.000Z</time>
      </trkpt>
      <trkpt lat="46.16675" lon="4.72157">
        <ele>204.80000305176</ele>
        <time>2021-10-13T13:07:50.000Z</time>
      </trkpt>
      <trkpt lat="46.16666" lon="4.72142">
        <ele>204.80000305176</ele>
        <time>2021-10-13T13:07:55.000Z</time>
      </trkpt>
      <trkpt lat="46.16664" lon="4.72094">
        <ele>207.60000610352</ele>
        <time>2021-10-13T13:08:03.000Z</time>
      </trkpt>
      <trkpt lat="46.16667" lon="4.72076">
        <ele>209</ele>
        <time>2021-10-13T13:08:06.000Z</time>
      </trkpt>
      <trkpt lat="46.1667" lon="4.72046">
        <ele>209.60000610352</ele>
        <time>2021-10-13T13:08:11.000Z</time>
      </trkpt>
      <trkpt lat="46.16678" lon="4.71976">
        <ele>209.19999694824</ele>
        <time>2021-10-13T13:08:22.000Z</time>
      </trkpt>
      <trkpt lat="46.16679" lon="4.71969">
        <ele>209.39999389648</ele>
        <time>2021-10-13T13:08:23.000Z</time>
      </trkpt>
      <trkpt lat="46.16663" lon="4.71861">
        <ele>213.19999694824</ele>
        <time>2021-10-13T13:08:39.000Z</time>
      </trkpt>
      <trkpt lat="46.16595" lon="4.71863">
        <ele>208.7</ele>
        <time>2021-10-13T13:08:44.000Z</time>
      </trkpt>
      <trkpt lat="46.16552" lon="4.71837">
        <ele>207.4</ele>
        <time>2021-10-13T13:10:39.000Z</time>
      </trkpt>
      <trkpt lat="46.16525" lon="4.71815">
        <ele>206.1</ele>
        <time>2021-10-13T13:10:41.000Z</time>
      </trkpt>
      <trkpt lat="46.16519" lon="4.71811">
        <ele>206</ele>
        <time>2021-10-13T13:10:51.000Z</time>
      </trkpt>
      <trkpt lat="46.16513" lon="4.71811">
        <ele>205.80000305176</ele>
        <time>2021-10-13T13:10:55.000Z</time>
      </trkpt>
      <trkpt lat="46.1651" lon="4.71809">
        <ele>205.60000610352</ele>
        <time>2021-10-13T13:11:00.000Z</time>
      </trkpt>
      <trkpt lat="46.16495" lon="4.71798">
        <ele>205.19999694824</ele>
        <time>2021-10-13T13:11:05.000Z</time>
      </trkpt>
      <trkpt lat="46.16465" lon="4.71776">
        <ele>206</ele>
        <time>2021-10-13T13:11:12.000Z</time>
      </trkpt>
      <trkpt lat="46.16443" lon="4.71764">
        <ele>206.80000305176</ele>
        <time>2021-10-13T13:11:17.000Z</time>
      </trkpt>
      <trkpt lat="46.1643" lon="4.71764">
        <ele>206.60000610352</ele>
        <time>2021-10-13T13:11:20.000Z</time>
      </trkpt>
      <trkpt lat="46.16408" lon="4.71761">
        <ele>205.19999694824</ele>
        <time>2021-10-13T13:11:27.000Z</time>
      </trkpt>
      <trkpt lat="46.16365" lon="4.71755">
        <ele>205</ele>
        <time>2021-10-13T13:11:36.000Z</time>
      </trkpt>
      <trkpt lat="46.16347" lon="4.71757">
        <ele>206.39999389648</ele>
        <time>2021-10-13T13:11:40.000Z</time>
      </trkpt>
      <trkpt lat="46.16326" lon="4.7178">
        <ele>207</ele>
        <time>2021-10-13T13:11:46.000Z</time>
      </trkpt>
      <trkpt lat="46.16316" lon="4.71802">
        <ele>206.80000305176</ele>
        <time>2021-10-13T13:11:50.000Z</time>
      </trkpt>
      <trkpt lat="46.16306" lon="4.71822">
        <ele>206.80000305176</ele>
        <time>2021-10-13T13:11:54.000Z</time>
      </trkpt>
      <trkpt lat="46.16271" lon="4.71829">
        <ele>210.19999694824</ele>
        <time>2021-10-13T13:12:03.000Z</time>
      </trkpt>
      <trkpt lat="46.16239" lon="4.71806">
        <ele>214.39999389648</ele>
        <time>2021-10-13T13:12:11.000Z</time>
      </trkpt>
      <trkpt lat="46.16223" lon="4.71796">
        <ele>216.39999389648</ele>
        <time>2021-10-13T13:12:15.000Z</time>
      </trkpt>
      <trkpt lat="46.16196" lon="4.71777">
        <ele>218.80000305176</ele>
        <time>2021-10-13T13:12:22.000Z</time>
      </trkpt>
      <trkpt lat="46.16181" lon="4.71768">
        <ele>219.80000305176</ele>
        <time>2021-10-13T13:12:26.000Z</time>
      </trkpt>
      <trkpt lat="46.16177" lon="4.71767">
        <ele>219.80000305176</ele>
        <time>2021-10-13T13:12:27.000Z</time>
      </trkpt>
      <trkpt lat="46.16116" lon="4.71769">
        <ele>220.60000610352</ele>
        <time>2021-10-13T13:12:41.000Z</time>
      </trkpt>
      <trkpt lat="46.16089" lon="4.71772">
        <ele>220.39999389648</ele>
        <time>2021-10-13T13:12:48.000Z</time>
      </trkpt>
      <trkpt lat="46.16086" lon="4.71749">
        <ele>221.19999694824</ele>
        <time>2021-10-13T13:12:55.000Z</time>
      </trkpt>
      <trkpt lat="46.1609" lon="4.71658">
        <ele>225.60000610352</ele>
        <time>2021-10-13T13:13:10.000Z</time>
      </trkpt>
      <trkpt lat="46.16074" lon="4.71629">
        <ele>226.60000610352</ele>
        <time>2021-10-13T13:13:17.000Z</time>
      </trkpt>
      <trkpt lat="46.15959" lon="4.71631">
        <ele>221.80000305176</ele>
        <time>2021-10-13T13:13:37.000Z</time>
      </trkpt>
      <trkpt lat="46.15926" lon="4.71631">
        <ele>221</ele>
        <time>2021-10-13T13:13:44.000Z</time>
      </trkpt>
      <trkpt lat="46.15918" lon="4.71607">
        <ele>221</ele>
        <time>2021-10-13T13:13:51.000Z</time>
      </trkpt>
      <trkpt lat="46.15902" lon="4.71519">
        <ele>222</ele>
        <time>2021-10-13T13:14:03.000Z</time>
      </trkpt>
      <trkpt lat="46.15892" lon="4.71492">
        <ele>222</ele>
        <time>2021-10-13T13:14:07.000Z</time>
      </trkpt>
      <trkpt lat="46.15874" lon="4.71456">
        <ele>222.60000610352</ele>
        <time>2021-10-13T13:14:14.000Z</time>
      </trkpt>
      <trkpt lat="46.15848" lon="4.71347">
        <ele>225.80000305176</ele>
        <time>2021-10-13T13:14:29.000Z</time>
      </trkpt>
      <trkpt lat="46.1584" lon="4.71328">
        <ele>226</ele>
        <time>2021-10-13T13:14:32.000Z</time>
      </trkpt>
      <trkpt lat="46.15838" lon="4.71309">
        <ele>226.60000610352</ele>
        <time>2021-10-13T13:14:35.000Z</time>
      </trkpt>
      <trkpt lat="46.1584" lon="4.71226">
        <ele>227</ele>
        <time>2021-10-13T13:14:47.000Z</time>
      </trkpt>
      <trkpt lat="46.15836" lon="4.7111">
        <ele>228.19999694824</ele>
        <time>2021-10-13T13:15:03.000Z</time>
      </trkpt>
      <trkpt lat="46.15835" lon="4.71082">
        <ele>229.39999389648</ele>
        <time>2021-10-13T13:15:07.000Z</time>
      </trkpt>
      <trkpt lat="46.15826" lon="4.71059">
        <ele>230.19999694824</ele>
        <time>2021-10-13T13:15:12.000Z</time>
      </trkpt>
      <trkpt lat="46.1581" lon="4.71047">
        <ele>230</ele>
        <time>2021-10-13T13:15:17.000Z</time>
      </trkpt>
      <trkpt lat="46.15819" lon="4.71049">
        <ele>230.19999694824</ele>
        <time>2021-10-13T13:15:24.000Z</time>
      </trkpt>
      <trkpt lat="46.15827" lon="4.71055">
        <ele>230.39999389648</ele>
        <time>2021-10-13T13:15:27.000Z</time>
      </trkpt>
      <trkpt lat="46.15834" lon="4.71045">
        <ele>231</ele>
        <time>2021-10-13T13:15:32.000Z</time>
      </trkpt>
      <trkpt lat="46.15835" lon="4.71015">
        <ele>233</ele>
        <time>2021-10-13T13:15:37.000Z</time>
      </trkpt>
      <trkpt lat="46.15834" lon="4.70947">
        <ele>233.39999389648</ele>
        <time>2021-10-13T13:15:47.000Z</time>
      </trkpt>
      <trkpt lat="46.15834" lon="4.70933">
        <ele>233.39999389648</ele>
        <time>2021-10-13T13:15:49.000Z</time>
      </trkpt>
      <trkpt lat="46.15836" lon="4.70891">
        <ele>233.39999389648</ele>
        <time>2021-10-13T13:15:55.000Z</time>
      </trkpt>
      <trkpt lat="46.15838" lon="4.70757">
        <ele>236</ele>
        <time>2021-10-13T13:16:13.000Z</time>
      </trkpt>
      <trkpt lat="46.15838" lon="4.70727">
        <ele>236</ele>
        <time>2021-10-13T13:16:17.000Z</time>
      </trkpt>
      <trkpt lat="46.15836" lon="4.70701">
        <ele>236</ele>
        <time>2021-10-13T13:16:21.000Z</time>
      </trkpt>
      <trkpt lat="46.15832" lon="4.70661">
        <ele>236.39999389648</ele>
        <time>2021-10-13T13:16:27.000Z</time>
      </trkpt>
      <trkpt lat="46.15831" lon="4.70565">
        <ele>236.60000610352</ele>
        <time>2021-10-13T13:16:40.000Z</time>
      </trkpt>
      <trkpt lat="46.15827" lon="4.70542">
        <ele>236.19999694824</ele>
        <time>2021-10-13T13:16:43.000Z</time>
      </trkpt>
      <trkpt lat="46.15826" lon="4.70518">
        <ele>236.19999694824</ele>
        <time>2021-10-13T13:16:46.000Z</time>
      </trkpt>
      <trkpt lat="46.15821" lon="4.7038">
        <ele>235.39999389648</ele>
        <time>2021-10-13T13:17:03.000Z</time>
      </trkpt>
      <trkpt lat="46.15824" lon="4.70332">
        <ele>236</ele>
        <time>2021-10-13T13:17:10.000Z</time>
      </trkpt>
      <trkpt lat="46.15831" lon="4.70311">
        <ele>236.19999694824</ele>
        <time>2021-10-13T13:17:14.000Z</time>
      </trkpt>
      <trkpt lat="46.1582" lon="4.70294">
        <ele>235.19999694824</ele>
        <time>2021-10-13T13:17:20.000Z</time>
      </trkpt>
      <trkpt lat="46.15789" lon="4.70286">
        <ele>233.39999389648</ele>
        <time>2021-10-13T13:17:26.000Z</time>
      </trkpt>
      <trkpt lat="46.15764" lon="4.70306">
        <ele>231.60000610352</ele>
        <time>2021-10-13T13:17:34.000Z</time>
      </trkpt>
      <trkpt lat="46.1576" lon="4.70306">
        <ele>231.60000610352</ele>
        <time>2021-10-13T13:17:35.000Z</time>
      </trkpt>
      <trkpt lat="46.15728" lon="4.70296">
        <ele>230</ele>
        <time>2021-10-13T13:17:42.000Z</time>
      </trkpt>
      <trkpt lat="46.15724" lon="4.70281">
        <ele>229.39999389648</ele>
        <time>2021-10-13T13:17:46.000Z</time>
      </trkpt>
      <trkpt lat="46.15741" lon="4.70171">
        <ele>230</ele>
        <time>2021-10-13T13:18:01.000Z</time>
      </trkpt>
      <trkpt lat="46.15745" lon="4.70149">
        <ele>229.19999694824</ele>
        <time>2021-10-13T13:18:04.000Z</time>
      </trkpt>
      <trkpt lat="46.1575" lon="4.70135">
        <ele>229.60000610352</ele>
        <time>2021-10-13T13:18:06.000Z</time>
      </trkpt>
      <trkpt lat="46.15759" lon="4.70091">
        <ele>230.39999389648</ele>
        <time>2021-10-13T13:18:12.000Z</time>
      </trkpt>
      <trkpt lat="46.1577" lon="4.70059">
        <ele>231</ele>
        <time>2021-10-13T13:18:17.000Z</time>
      </trkpt>
      <trkpt lat="46.15775" lon="4.70045">
        <ele>231</ele>
        <time>2021-10-13T13:18:19.000Z</time>
      </trkpt>
      <trkpt lat="46.1579" lon="4.69987">
        <ele>230</ele>
        <time>2021-10-13T13:18:27.000Z</time>
      </trkpt>
      <trkpt lat="46.158" lon="4.6996">
        <ele>229.60000610352</ele>
        <time>2021-10-13T13:18:31.000Z</time>
      </trkpt>
      <trkpt lat="46.15834" lon="4.69846">
        <ele>232.19999694824</ele>
        <time>2021-10-13T13:18:48.000Z</time>
      </trkpt>
      <trkpt lat="46.15852" lon="4.69788">
        <ele>233.19999694824</ele>
        <time>2021-10-13T13:18:59.000Z</time>
      </trkpt>
      <trkpt lat="46.15845" lon="4.6977">
        <ele>232.19999694824</ele>
        <time>2021-10-13T13:19:03.000Z</time>
      </trkpt>
      <trkpt lat="46.15799" lon="4.69685">
        <ele>230.60000610352</ele>
        <time>2021-10-13T13:19:15.000Z</time>
      </trkpt>
      <trkpt lat="46.15758" lon="4.69677">
        <ele>229.80000305176</ele>
        <time>2021-10-13T13:19:22.000Z</time>
      </trkpt>
      <trkpt lat="46.15753" lon="4.69682">
        <ele>229.60000610352</ele>
        <time>2021-10-13T13:19:23.000Z</time>
      </trkpt>
      <trkpt lat="46.15738" lon="4.69697">
        <ele>229.19999694824</ele>
        <time>2021-10-13T13:19:26.000Z</time>
      </trkpt>
      <trkpt lat="46.15723" lon="4.69697">
        <ele>229.19999694824</ele>
        <time>2021-10-13T13:19:32.000Z</time>
      </trkpt>
      <trkpt lat="46.15715" lon="4.69617">
        <ele>233</ele>
        <time>2021-10-13T13:19:45.000Z</time>
      </trkpt>
      <trkpt lat="46.15716" lon="4.69586">
        <ele>234</ele>
        <time>2021-10-13T13:19:50.000Z</time>
      </trkpt>
      <trkpt lat="46.15715" lon="4.69557">
        <ele>235</ele>
        <time>2021-10-13T13:19:55.000Z</time>
      </trkpt>
      <trkpt lat="46.15704" lon="4.69548">
        <ele>235.39999389648</ele>
        <time>2021-10-13T13:19:59.000Z</time>
      </trkpt>
      <trkpt lat="46.15615" lon="4.69507">
        <ele>234.39999389648</ele>
        <time>2021-10-13T13:20:18.000Z</time>
      </trkpt>
      <trkpt lat="46.15549" lon="4.69473">
        <ele>234.80000305176</ele>
        <time>2021-10-13T13:20:34.000Z</time>
      </trkpt>
      <trkpt lat="46.15548" lon="4.69468">
        <ele>235</ele>
        <time>2021-10-13T13:20:35.000Z</time>
      </trkpt>
      <trkpt lat="46.15538" lon="4.69402">
        <ele>236.39999389648</ele>
        <time>2021-10-13T13:20:46.000Z</time>
      </trkpt>
      <trkpt lat="46.15544" lon="4.69358">
        <ele>238.19999694824</ele>
        <time>2021-10-13T13:20:53.000Z</time>
      </trkpt>
      <trkpt lat="46.15561" lon="4.69282">
        <ele>240.60000610352</ele>
        <time>2021-10-13T13:21:06.000Z</time>
      </trkpt>
      <trkpt lat="46.15579" lon="4.69181">
        <ele>242</ele>
        <time>2021-10-13T13:21:24.000Z</time>
      </trkpt>
      <trkpt lat="46.15551" lon="4.69157">
        <ele>242</ele>
        <time>2021-10-13T13:21:32.000Z</time>
      </trkpt>
      <trkpt lat="46.15543" lon="4.6915">
        <ele>242</ele>
        <time>2021-10-13T13:21:34.000Z</time>
      </trkpt>
      <trkpt lat="46.15467" lon="4.69073">
        <ele>244.80000305176</ele>
        <time>2021-10-13T13:21:53.000Z</time>
      </trkpt>
      <trkpt lat="46.15463" lon="4.6907">
        <ele>245</ele>
        <time>2021-10-13T13:21:54.000Z</time>
      </trkpt>
      <trkpt lat="46.15403" lon="4.69012">
        <ele>244.60000610352</ele>
        <time>2021-10-13T13:22:10.000Z</time>
      </trkpt>
      <trkpt lat="46.15382" lon="4.68988">
        <ele>244.60000610352</ele>
        <time>2021-10-13T13:22:17.000Z</time>
      </trkpt>
      <trkpt lat="46.15338" lon="4.68935">
        <ele>246.60000610352</ele>
        <time>2021-10-13T13:22:33.000Z</time>
      </trkpt>
      <trkpt lat="46.1533" lon="4.68934">
        <ele>246.39999389648</ele>
        <time>2021-10-13T13:22:36.000Z</time>
      </trkpt>
      <trkpt lat="46.1532" lon="4.68924">
        <ele>246.80000305176</ele>
        <time>2021-10-13T13:22:40.000Z</time>
      </trkpt>
      <trkpt lat="46.15263" lon="4.68874">
        <ele>245.80000305176</ele>
        <time>2021-10-13T13:22:55.000Z</time>
      </trkpt>
      <trkpt lat="46.1526" lon="4.68872">
        <ele>245.80000305176</ele>
        <time>2021-10-13T13:22:56.000Z</time>
      </trkpt>
      <trkpt lat="46.15254" lon="4.68865">
        <ele>246</ele>
        <time>2021-10-13T13:22:58.000Z</time>
      </trkpt>
      <trkpt lat="46.15216" lon="4.68837">
        <ele>247</ele>
        <time>2021-10-13T13:23:07.000Z</time>
      </trkpt>
      <trkpt lat="46.15206" lon="4.68835">
        <ele>247.39999389648</ele>
        <time>2021-10-13T13:23:09.000Z</time>
      </trkpt>
      <trkpt lat="46.15143" lon="4.68829">
        <ele>249.19999694824</ele>
        <time>2021-10-13T13:23:22.000Z</time>
      </trkpt>
      <trkpt lat="46.15136" lon="4.68828">
        <ele>249.39999389648</ele>
        <time>2021-10-13T13:23:24.000Z</time>
      </trkpt>
      <trkpt lat="46.15116" lon="4.68831">
        <ele>247.2</ele>
        <time>2021-10-13T13:24:01.000Z</time>
      </trkpt>
      <trkpt lat="46.15061" lon="4.68839">
        <ele>247</ele>
        <time>2021-10-13T13:24:05.000Z</time>
      </trkpt>
      <trkpt lat="46.14998" lon="4.68824">
        <ele>248.8</ele>
        <time>2021-10-13T13:24:09.000Z</time>
      </trkpt>
      <trkpt lat="46.14946" lon="4.68811">
        <ele>249.5</ele>
        <time>2021-10-13T13:24:13.000Z</time>
      </trkpt>
      <trkpt lat="46.14873" lon="4.68786">
        <ele>251.1</ele>
      </trkpt>
      <trkpt lat="46.14856" lon="4.68781">
        <ele>251.4</ele>
      </trkpt>
      <trkpt lat="46.14837" lon="4.68786">
        <ele>251.3</ele>
      </trkpt>
      <trkpt lat="46.14818" lon="4.68794">
        <ele>250.8</ele>
      </trkpt>
      <trkpt lat="46.1481" lon="4.68724">
        <ele>255.3</ele>
      </trkpt>
      <trkpt lat="46.14809" lon="4.68646">
        <ele>261.4</ele>
      </trkpt>
      <trkpt lat="46.14882" lon="4.68625">
        <ele>264.6</ele>
        <time>2021-10-13T13:24:15.000Z</time>
      </trkpt>
      <trkpt lat="46.14959" lon="4.68622">
        <ele>269.2</ele>
      </trkpt>
      <trkpt lat="46.15004" lon="4.68612">
        <ele>273.1</ele>
        <time>2021-10-13T13:24:23.000Z</time>
      </trkpt>
      <trkpt lat="46.15039" lon="4.68598">
        <ele>274.6</ele>
        <time>2021-10-13T13:24:42.000Z</time>
      </trkpt>
      <trkpt lat="46.15077" lon="4.68573">
        <ele>279.39999389648</ele>
        <time>2021-10-13T13:25:07.000Z</time>
      </trkpt>
      <trkpt lat="46.15114" lon="4.68543">
        <ele>280.39999389648</ele>
        <time>2021-10-13T13:25:19.000Z</time>
      </trkpt>
      <trkpt lat="46.15147" lon="4.68493">
        <ele>283.79998779297</ele>
        <time>2021-10-13T13:25:34.000Z</time>
      </trkpt>
      <trkpt lat="46.15142" lon="4.68446">
        <ele>288.6</ele>
        <time>2021-10-13T13:25:43.000Z</time>
      </trkpt>
      <trkpt lat="46.15103" lon="4.68469">
        <ele>289.6</ele>
        <time>2021-10-13T13:25:48.000Z</time>
      </trkpt>
      <trkpt lat="46.15068" lon="4.68476">
        <ele>290.7</ele>
        <time>2021-10-13T13:25:50.000Z</time>
      </trkpt>
      <trkpt lat="46.1508" lon="4.68317">
        <ele>312.1</ele>
        <time>2021-10-13T13:25:54.000Z</time>
      </trkpt>
      <trkpt lat="46.15098" lon="4.68307">
        <ele>312</ele>
        <time>2021-10-13T13:26:10.000Z</time>
      </trkpt>
      <trkpt lat="46.15098" lon="4.68179">
        <ele>328.3</ele>
        <time>2021-10-13T13:26:13.000Z</time>
      </trkpt>
      <trkpt lat="46.15117" lon="4.68167">
        <ele>328.1</ele>
        <time>2021-10-13T13:26:14.000Z</time>
      </trkpt>
      <trkpt lat="46.15127" lon="4.68022">
        <ele>340.9</ele>
        <time>2021-10-13T13:26:15.000Z</time>
      </trkpt>
      <trkpt lat="46.15116" lon="4.67999">
        <ele>344.3</ele>
        <time>2021-10-13T13:26:17.000Z</time>
      </trkpt>
      <trkpt lat="46.15139" lon="4.67873">
        <ele>349.1</ele>
        <time>2021-10-13T13:26:19.000Z</time>
      </trkpt>
      <trkpt lat="46.15162" lon="4.67769">
        <ele>351.6</ele>
        <time>2021-10-13T13:26:24.000Z</time>
      </trkpt>
      <trkpt lat="46.15167" lon="4.67751">
        <ele>352</ele>
      </trkpt>
      <trkpt lat="46.15239" lon="4.67755">
        <ele>352.6</ele>
      </trkpt>
      <trkpt lat="46.1526" lon="4.67689">
        <ele>352.9</ele>
      </trkpt>
      <trkpt lat="46.15316" lon="4.67675">
        <ele>352.2</ele>
      </trkpt>
      <trkpt lat="46.15321" lon="4.67662">
        <ele>351.9</ele>
        <time>2021-10-13T13:26:32.000Z</time>
      </trkpt>
      <trkpt lat="46.15319" lon="4.67634">
        <ele>350.1</ele>
      </trkpt>
      <trkpt lat="46.1533" lon="4.67629">
        <ele>349.7</ele>
      </trkpt>
      <trkpt lat="46.15371" lon="4.6762">
        <ele>347.7</ele>
      </trkpt>
      <trkpt lat="46.15409" lon="4.67601">
        <ele>345.1</ele>
      </trkpt>
      <trkpt lat="46.15444" lon="4.67585">
        <ele>341.1</ele>
      </trkpt>
      <trkpt lat="46.15461" lon="4.67588">
        <ele>339.4</ele>
        <time>2021-10-13T13:33:55.000Z</time>
      </trkpt>
      <trkpt lat="46.15483" lon="4.67582">
        <ele>336.7</ele>
        <time>2021-10-13T13:34:01.000Z</time>
      </trkpt>
      <trkpt lat="46.15513" lon="4.67565">
        <ele>332.5</ele>
        <time>2021-10-13T13:34:08.000Z</time>
      </trkpt>
      <trkpt lat="46.15539" lon="4.67544">
        <ele>329.1</ele>
        <time>2021-10-13T13:34:14.000Z</time>
      </trkpt>
      <trkpt lat="46.15566" lon="4.67518">
        <ele>326.3</ele>
        <time>2021-10-13T13:34:21.000Z</time>
      </trkpt>
      <trkpt lat="46.15603" lon="4.67488">
        <ele>323.7</ele>
        <time>2021-10-13T13:34:29.000Z</time>
      </trkpt>
      <trkpt lat="46.1562" lon="4.67507">
        <ele>323.6</ele>
        <time>2021-10-13T13:35:15.000Z</time>
      </trkpt>
      <trkpt lat="46.15633" lon="4.67512">
        <ele>323.79998779297</ele>
        <time>2021-10-13T13:35:26.000Z</time>
      </trkpt>
      <trkpt lat="46.15647" lon="4.67505">
        <ele>323.39999389648</ele>
        <time>2021-10-13T13:35:31.000Z</time>
      </trkpt>
      <trkpt lat="46.15668" lon="4.67504">
        <ele>323.79998779297</ele>
        <time>2021-10-13T13:35:37.000Z</time>
      </trkpt>
      <trkpt lat="46.15691" lon="4.67484">
        <ele>325.39999389648</ele>
        <time>2021-10-13T13:35:44.000Z</time>
      </trkpt>
      <trkpt lat="46.15698" lon="4.67448">
        <ele>325.39999389648</ele>
        <time>2021-10-13T13:35:50.000Z</time>
      </trkpt>
      <trkpt lat="46.15724" lon="4.67396">
        <ele>324</ele>
        <time>2021-10-13T13:36:03.000Z</time>
      </trkpt>
      <trkpt lat="46.15805" lon="4.67387">
        <ele>322.60000610352</ele>
        <time>2021-10-13T13:36:20.000Z</time>
      </trkpt>
      <trkpt lat="46.15856" lon="4.67378">
        <ele>321.79998779297</ele>
        <time>2021-10-13T13:36:31.000Z</time>
      </trkpt>
      <trkpt lat="46.1586" lon="4.67375">
        <ele>322</ele>
        <time>2021-10-13T13:36:32.000Z</time>
      </trkpt>
      <trkpt lat="46.15864" lon="4.67371">
        <ele>322.20001220703</ele>
        <time>2021-10-13T13:36:33.000Z</time>
      </trkpt>
      <trkpt lat="46.15868" lon="4.67367">
        <ele>322.60000610352</ele>
        <time>2021-10-13T13:36:34.000Z</time>
      </trkpt>
      <trkpt lat="46.15872" lon="4.67363">
        <ele>322.79998779297</ele>
        <time>2021-10-13T13:36:35.000Z</time>
      </trkpt>
      <trkpt lat="46.15936" lon="4.67305">
        <ele>323.79998779297</ele>
        <time>2021-10-13T13:36:52.000Z</time>
      </trkpt>
      <trkpt lat="46.15938" lon="4.67294">
        <ele>323.60000610352</ele>
        <time>2021-10-13T13:36:54.000Z</time>
      </trkpt>
      <trkpt lat="46.15944" lon="4.67227">
        <ele>321.39999389648</ele>
        <time>2021-10-13T13:37:03.000Z</time>
      </trkpt>
      <trkpt lat="46.1596" lon="4.67085">
        <ele>318.79998779297</ele>
        <time>2021-10-13T13:37:20.000Z</time>
      </trkpt>
      <trkpt lat="46.15972" lon="4.66981">
        <ele>320.20001220703</ele>
        <time>2021-10-13T13:37:33.000Z</time>
      </trkpt>
      <trkpt lat="46.15972" lon="4.66973">
        <ele>320.39999389648</ele>
        <time>2021-10-13T13:37:34.000Z</time>
      </trkpt>
      <trkpt lat="46.15984" lon="4.66878">
        <ele>322.79998779297</ele>
        <time>2021-10-13T13:37:47.000Z</time>
      </trkpt>
      <trkpt lat="46.15996" lon="4.66778">
        <ele>325.39999389648</ele>
        <time>2021-10-13T13:38:01.000Z</time>
      </trkpt>
      <trkpt lat="46.15998" lon="4.66757">
        <ele>325.60000610352</ele>
        <time>2021-10-13T13:38:04.000Z</time>
      </trkpt>
      <trkpt lat="46.16009" lon="4.66673">
        <ele>328.60000610352</ele>
        <time>2021-10-13T13:38:16.000Z</time>
      </trkpt>
      <trkpt lat="46.16011" lon="4.66654">
        <ele>328.79998779297</ele>
        <time>2021-10-13T13:38:19.000Z</time>
      </trkpt>
      <trkpt lat="46.16014" lon="4.66636">
        <ele>328.79998779297</ele>
        <time>2021-10-13T13:38:22.000Z</time>
      </trkpt>
      <trkpt lat="46.16025" lon="4.66575">
        <ele>331.60000610352</ele>
        <time>2021-10-13T13:38:34.000Z</time>
      </trkpt>
      <trkpt lat="46.16047" lon="4.66535">
        <ele>335</ele>
        <time>2021-10-13T13:38:44.000Z</time>
      </trkpt>
      <trkpt lat="46.16072" lon="4.66441">
        <ele>341.20001220703</ele>
        <time>2021-10-13T13:39:00.000Z</time>
      </trkpt>
      <trkpt lat="46.16075" lon="4.66429">
        <ele>341.79998779297</ele>
        <time>2021-10-13T13:39:02.000Z</time>
      </trkpt>
      <trkpt lat="46.16091" lon="4.66368">
        <ele>345.39999389648</ele>
        <time>2021-10-13T13:39:13.000Z</time>
      </trkpt>
      <trkpt lat="46.16094" lon="4.66356">
        <ele>346.20001220703</ele>
        <time>2021-10-13T13:39:15.000Z</time>
      </trkpt>
      <trkpt lat="46.16103" lon="4.66306">
        <ele>350.39999389648</ele>
        <time>2021-10-13T13:39:24.000Z</time>
      </trkpt>
      <trkpt lat="46.16108" lon="4.66273">
        <ele>352.79998779297</ele>
        <time>2021-10-13T13:39:30.000Z</time>
      </trkpt>
      <trkpt lat="46.16109" lon="4.6624">
        <ele>355.20001220703</ele>
        <time>2021-10-13T13:39:36.000Z</time>
      </trkpt>
      <trkpt lat="46.16107" lon="4.66231">
        <ele>356</ele>
        <time>2021-10-13T13:39:38.000Z</time>
      </trkpt>
      <trkpt lat="46.16101" lon="4.66206">
        <ele>357.39999389648</ele>
        <time>2021-10-13T13:39:43.000Z</time>
      </trkpt>
      <trkpt lat="46.16093" lon="4.66168">
        <ele>358.20001220703</ele>
        <time>2021-10-13T13:39:50.000Z</time>
      </trkpt>
      <trkpt lat="46.161" lon="4.66101">
        <ele>359.79998779297</ele>
        <time>2021-10-13T13:40:03.000Z</time>
      </trkpt>
      <trkpt lat="46.16093" lon="4.66087">
        <ele>359.39999389648</ele>
        <time>2021-10-13T13:40:07.000Z</time>
      </trkpt>
      <trkpt lat="46.1605" lon="4.66035">
        <ele>354.39999389648</ele>
        <time>2021-10-13T13:40:18.000Z</time>
      </trkpt>
      <trkpt lat="46.16047" lon="4.66032">
        <ele>354</ele>
        <time>2021-10-13T13:40:19.000Z</time>
      </trkpt>
      <trkpt lat="46.16052" lon="4.66013">
        <ele>352.39999389648</ele>
        <time>2021-10-13T13:40:24.000Z</time>
      </trkpt>
      <trkpt lat="46.16068" lon="4.66">
        <ele>352.20001220703</ele>
        <time>2021-10-13T13:40:28.000Z</time>
      </trkpt>
      <trkpt lat="46.16116" lon="4.6597">
        <ele>350</ele>
        <time>2021-10-13T13:40:37.000Z</time>
      </trkpt>
      <trkpt lat="46.16139" lon="4.65957">
        <ele>348.79998779297</ele>
        <time>2021-10-13T13:40:41.000Z</time>
      </trkpt>
      <trkpt lat="46.16194" lon="4.65922">
        <ele>346.39999389648</ele>
        <time>2021-10-13T13:40:50.000Z</time>
      </trkpt>
      <trkpt lat="46.16214" lon="4.65906">
        <ele>346</ele>
        <time>2021-10-13T13:40:54.000Z</time>
      </trkpt>
      <trkpt lat="46.16222" lon="4.65896">
        <ele>345.79998779297</ele>
        <time>2021-10-13T13:40:56.000Z</time>
      </trkpt>
      <trkpt lat="46.1622" lon="4.65859">
        <ele>346.20001220703</ele>
        <time>2021-10-13T13:41:03.000Z</time>
      </trkpt>
      <trkpt lat="46.16211" lon="4.65858">
        <ele>345.79998779297</ele>
        <time>2021-10-13T13:41:05.000Z</time>
      </trkpt>
      <trkpt lat="46.16202" lon="4.6586">
        <ele>345.39999389648</ele>
        <time>2021-10-13T13:41:07.000Z</time>
      </trkpt>
      <trkpt lat="46.1618" lon="4.65858">
        <ele>345.39999389648</ele>
        <time>2021-10-13T13:41:12.000Z</time>
      </trkpt>
      <trkpt lat="46.16126" lon="4.65854">
        <ele>347.20001220703</ele>
        <time>2021-10-13T13:41:23.000Z</time>
      </trkpt>
      <trkpt lat="46.16112" lon="4.65849">
        <ele>347.79998779297</ele>
        <time>2021-10-13T13:41:26.000Z</time>
      </trkpt>
      <trkpt lat="46.16091" lon="4.65843">
        <ele>347.79998779297</ele>
        <time>2021-10-13T13:41:30.000Z</time>
      </trkpt>
      <trkpt lat="46.16071" lon="4.65838">
        <ele>348</ele>
        <time>2021-10-13T13:41:34.000Z</time>
      </trkpt>
      <trkpt lat="46.1605" lon="4.65808">
        <ele>352.39999389648</ele>
        <time>2021-10-13T13:41:41.000Z</time>
      </trkpt>
      <trkpt lat="46.16042" lon="4.65773">
        <ele>355.60000610352</ele>
        <time>2021-10-13T13:41:46.000Z</time>
      </trkpt>
      <trkpt lat="46.16032" lon="4.65734">
        <ele>358.60000610352</ele>
        <time>2021-10-13T13:41:52.000Z</time>
      </trkpt>
      <trkpt lat="46.1602" lon="4.65693">
        <ele>361.20001220703</ele>
        <time>2021-10-13T13:41:59.000Z</time>
      </trkpt>
      <trkpt lat="46.16012" lon="4.65644">
        <ele>362.60000610352</ele>
        <time>2021-10-13T13:42:07.000Z</time>
      </trkpt>
      <trkpt lat="46.16009" lon="4.65616">
        <ele>362.60000610352</ele>
        <time>2021-10-13T13:42:14.000Z</time>
      </trkpt>
      <trkpt lat="46.15996" lon="4.65584">
        <ele>360.8</ele>
        <time>2021-10-13T13:42:18.000Z</time>
      </trkpt>
      <trkpt lat="46.15968" lon="4.65453">
        <ele>362.8</ele>
        <time>2021-10-13T13:42:37.000Z</time>
      </trkpt>
      <trkpt lat="46.15947" lon="4.65367">
        <ele>365.2</ele>
        <time>2021-10-13T13:42:52.000Z</time>
      </trkpt>
      <trkpt lat="46.15955" lon="4.65257">
        <ele>371</ele>
        <time>2021-10-13T13:42:53.000Z</time>
      </trkpt>
      <trkpt lat="46.15912" lon="4.65154">
        <ele>370.8</ele>
      </trkpt>
      <trkpt lat="46.15899" lon="4.65112">
        <ele>370.9</ele>
      </trkpt>
      <trkpt lat="46.15903" lon="4.6498">
        <ele>367.2</ele>
      </trkpt>
      <trkpt lat="46.15914" lon="4.64963">
        <ele>365.1</ele>
      </trkpt>
      <trkpt lat="46.15984" lon="4.64965">
        <ele>369.9</ele>
      </trkpt>
      <trkpt lat="46.16031" lon="4.6496">
        <ele>372.8</ele>
      </trkpt>
      <trkpt lat="46.16055" lon="4.6495">
        <ele>373.7</ele>
      </trkpt>
      <trkpt lat="46.16091" lon="4.64957">
        <ele>377.4</ele>
      </trkpt>
      <trkpt lat="46.16132" lon="4.64941">
        <ele>378.6</ele>
        <time>2021-10-13T13:42:59.000Z</time>
      </trkpt>
      <trkpt lat="46.16166" lon="4.64938">
        <ele>380.8</ele>
        <time>2021-10-13T13:43:07.000Z</time>
      </trkpt>
      <trkpt lat="46.16191" lon="4.64929">
        <ele>381.2</ele>
        <time>2021-10-13T13:43:16.000Z</time>
      </trkpt>
      <trkpt lat="46.16224" lon="4.64918">
        <ele>381.8</ele>
      </trkpt>
      <trkpt lat="46.16271" lon="4.64912">
        <ele>383.6</ele>
        <time>2021-10-13T13:43:31.000Z</time>
      </trkpt>
      <trkpt lat="46.16308" lon="4.64904">
        <ele>385.2</ele>
        <time>2021-10-13T13:44:52.000Z</time>
      </trkpt>
      <trkpt lat="46.16335" lon="4.64896">
        <ele>388.39999389648</ele>
        <time>2021-10-13T13:45:03.000Z</time>
      </trkpt>
      <trkpt lat="46.16339" lon="4.64889">
        <ele>388.39999389648</ele>
        <time>2021-10-13T13:45:05.000Z</time>
      </trkpt>
      <trkpt lat="46.16343" lon="4.64888">
        <ele>388.60000610352</ele>
        <time>2021-10-13T13:45:06.000Z</time>
      </trkpt>
      <trkpt lat="46.16347" lon="4.64887">
        <ele>389</ele>
        <time>2021-10-13T13:45:07.000Z</time>
      </trkpt>
      <trkpt lat="46.16351" lon="4.64885">
        <ele>389.39999389648</ele>
        <time>2021-10-13T13:45:08.000Z</time>
      </trkpt>
      <trkpt lat="46.16361" lon="4.64885">
        <ele>390.39999389648</ele>
        <time>2021-10-13T13:46:08.000Z</time>
      </trkpt>
      <trkpt lat="46.16364" lon="4.64894">
        <ele>391.39999389648</ele>
        <time>2021-10-13T13:46:10.000Z</time>
      </trkpt>
      <trkpt lat="46.16416" lon="4.64962">
        <ele>399</ele>
        <time>2021-10-13T13:46:27.000Z</time>
      </trkpt>
      <trkpt lat="46.16418" lon="4.64963">
        <ele>399.20001220703</ele>
        <time>2021-10-13T13:46:28.000Z</time>
      </trkpt>
      <trkpt lat="46.16425" lon="4.64958">
        <ele>400</ele>
        <time>2021-10-13T13:46:31.000Z</time>
      </trkpt>
      <trkpt lat="46.16427" lon="4.64954">
        <ele>400.20001220703</ele>
        <time>2021-10-13T13:46:32.000Z</time>
      </trkpt>
      <trkpt lat="46.1644" lon="4.64936">
        <ele>401</ele>
        <time>2021-10-13T13:46:36.000Z</time>
      </trkpt>
      <trkpt lat="46.1646" lon="4.64911">
        <ele>403.20001220703</ele>
        <time>2021-10-13T13:46:42.000Z</time>
      </trkpt>
      <trkpt lat="46.16482" lon="4.64896">
        <ele>405</ele>
        <time>2021-10-13T13:46:48.000Z</time>
      </trkpt>
      <trkpt lat="46.16507" lon="4.64861">
        <ele>406.79998779297</ele>
        <time>2021-10-13T13:46:57.000Z</time>
      </trkpt>
      <trkpt lat="46.1651" lon="4.64859">
        <ele>407</ele>
        <time>2021-10-13T13:46:58.000Z</time>
      </trkpt>
      <trkpt lat="46.16537" lon="4.64832">
        <ele>409.60000610352</ele>
        <time>2021-10-13T13:47:06.000Z</time>
      </trkpt>
      <trkpt lat="46.16543" lon="4.64823">
        <ele>410.39999389648</ele>
        <time>2021-10-13T13:47:08.000Z</time>
      </trkpt>
      <trkpt lat="46.16591" lon="4.6476">
        <ele>412.79998779297</ele>
        <time>2021-10-13T13:47:24.000Z</time>
      </trkpt>
      <trkpt lat="46.16631" lon="4.64696">
        <ele>418.20001220703</ele>
        <time>2021-10-13T13:47:40.000Z</time>
      </trkpt>
      <trkpt lat="46.16632" lon="4.64696">
        <ele>418.20001220703</ele>
        <time>2021-10-13T13:47:45.000Z</time>
      </trkpt>
      <trkpt lat="46.16637" lon="4.64698">
        <ele>418.79998779297</ele>
        <time>2021-10-13T13:47:57.000Z</time>
      </trkpt>
      <trkpt lat="46.1664" lon="4.64701">
        <ele>419</ele>
        <time>2021-10-13T13:47:58.000Z</time>
      </trkpt>
      <trkpt lat="46.16686" lon="4.6475">
        <ele>421.20001220703</ele>
        <time>2021-10-13T13:48:12.000Z</time>
      </trkpt>
      <trkpt lat="46.16688" lon="4.6475">
        <ele>421.20001220703</ele>
        <time>2021-10-13T13:48:13.000Z</time>
      </trkpt>
      <trkpt lat="46.16725" lon="4.6471">
        <ele>424.60000610352</ele>
        <time>2021-10-13T13:48:24.000Z</time>
      </trkpt>
      <trkpt lat="46.16736" lon="4.64694">
        <ele>425.79998779297</ele>
        <time>2021-10-13T13:48:28.000Z</time>
      </trkpt>
      <trkpt lat="46.16728" lon="4.6467">
        <ele>426.20001220703</ele>
        <time>2021-10-13T13:48:33.000Z</time>
      </trkpt>
      <trkpt lat="46.16715" lon="4.64644">
        <ele>425.20001220703</ele>
        <time>2021-10-13T13:48:38.000Z</time>
      </trkpt>
      <trkpt lat="46.16709" lon="4.64634">
        <ele>424.60000610352</ele>
        <time>2021-10-13T13:48:40.000Z</time>
      </trkpt>
      <trkpt lat="46.16707" lon="4.64602">
        <ele>424.60000610352</ele>
        <time>2021-10-13T13:48:46.000Z</time>
      </trkpt>
      <trkpt lat="46.16748" lon="4.64516">
        <ele>428.60000610352</ele>
        <time>2021-10-13T13:49:02.000Z</time>
      </trkpt>
      <trkpt lat="46.16758" lon="4.64503">
        <ele>429.79998779297</ele>
        <time>2021-10-13T13:49:07.000Z</time>
      </trkpt>
      <trkpt lat="46.16756" lon="4.64469">
        <ele>429.20001220703</ele>
        <time>2021-10-13T13:49:16.000Z</time>
      </trkpt>
      <trkpt lat="46.16784" lon="4.64419">
        <ele>431.39999389648</ele>
        <time>2021-10-13T13:49:28.000Z</time>
      </trkpt>
      <trkpt lat="46.16792" lon="4.64407">
        <ele>431.79998779297</ele>
        <time>2021-10-13T13:49:31.000Z</time>
      </trkpt>
      <trkpt lat="46.16827" lon="4.64347">
        <ele>434.20001220703</ele>
        <time>2021-10-13T13:49:44.000Z</time>
      </trkpt>
      <trkpt lat="46.16844" lon="4.64318">
        <ele>434.39999389648</ele>
        <time>2021-10-13T13:49:51.000Z</time>
      </trkpt>
      <trkpt lat="46.16883" lon="4.64271">
        <ele>434</ele>
        <time>2021-10-13T13:50:04.000Z</time>
      </trkpt>
      <trkpt lat="46.16924" lon="4.64225">
        <ele>431.39999389648</ele>
        <time>2021-10-13T13:50:19.000Z</time>
      </trkpt>
      <trkpt lat="46.1693" lon="4.6423">
        <ele>432.20001220703</ele>
        <time>2021-10-13T13:50:26.000Z</time>
      </trkpt>
      <trkpt lat="46.16934" lon="4.64223">
        <ele>431.60000610352</ele>
        <time>2021-10-13T13:50:36.000Z</time>
      </trkpt>
      <trkpt lat="46.16937" lon="4.64214">
        <ele>431.20001220703</ele>
        <time>2021-10-13T13:50:38.000Z</time>
      </trkpt>
      <trkpt lat="46.16947" lon="4.6418">
        <ele>429.60000610352</ele>
        <time>2021-10-13T13:50:43.000Z</time>
      </trkpt>
      <trkpt lat="46.16967" lon="4.64136">
        <ele>428</ele>
        <time>2021-10-13T13:50:50.000Z</time>
      </trkpt>
      <trkpt lat="46.17013" lon="4.64084">
        <ele>429.79998779297</ele>
        <time>2021-10-13T13:51:01.000Z</time>
      </trkpt>
      <trkpt lat="46.17024" lon="4.64072">
        <ele>430.79998779297</ele>
        <time>2021-10-13T13:51:04.000Z</time>
      </trkpt>
      <trkpt lat="46.17064" lon="4.64068">
        <ele>436</ele>
        <time>2021-10-13T13:51:14.000Z</time>
      </trkpt>
      <trkpt lat="46.17072" lon="4.64056">
        <ele>436.39999389648</ele>
        <time>2021-10-13T13:51:17.000Z</time>
      </trkpt>
      <trkpt lat="46.17086" lon="4.64026">
        <ele>436.20001220703</ele>
        <time>2021-10-13T13:51:23.000Z</time>
      </trkpt>
      <trkpt lat="46.17089" lon="4.6402">
        <ele>436.20001220703</ele>
        <time>2021-10-13T13:51:24.000Z</time>
      </trkpt>
      <trkpt lat="46.17107" lon="4.63963">
        <ele>438.60000610352</ele>
        <time>2021-10-13T13:51:33.000Z</time>
      </trkpt>
      <trkpt lat="46.17109" lon="4.63936">
        <ele>438.39999389648</ele>
        <time>2021-10-13T13:51:37.000Z</time>
      </trkpt>
      <trkpt lat="46.17111" lon="4.63916">
        <ele>438</ele>
        <time>2021-10-13T13:51:40.000Z</time>
      </trkpt>
      <trkpt lat="46.17143" lon="4.63865">
        <ele>437.39999389648</ele>
        <time>2021-10-13T13:51:51.000Z</time>
      </trkpt>
      <trkpt lat="46.17184" lon="4.63792">
        <ele>441.39999389648</ele>
        <time>2021-10-13T13:52:04.000Z</time>
      </trkpt>
      <trkpt lat="46.1719" lon="4.63775">
        <ele>442.79998779297</ele>
        <time>2021-10-13T13:52:07.000Z</time>
      </trkpt>
      <trkpt lat="46.17205" lon="4.63731">
        <ele>443.60000610352</ele>
        <time>2021-10-13T13:52:15.000Z</time>
      </trkpt>
      <trkpt lat="46.17214" lon="4.63715">
        <ele>444</ele>
        <time>2021-10-13T13:52:19.000Z</time>
      </trkpt>
      <trkpt lat="46.17218" lon="4.63711">
        <ele>444.60000610352</ele>
        <time>2021-10-13T13:52:22.000Z</time>
      </trkpt>
      <trkpt lat="46.17224" lon="4.63741">
        <ele>446.60000610352</ele>
        <time>2021-10-13T13:52:30.000Z</time>
      </trkpt>
      <trkpt lat="46.17227" lon="4.63756">
        <ele>447.60000610352</ele>
        <time>2021-10-13T13:52:33.000Z</time>
      </trkpt>
      <trkpt lat="46.17238" lon="4.63786">
        <ele>450.60000610352</ele>
        <time>2021-10-13T13:52:40.000Z</time>
      </trkpt>
      <trkpt lat="46.17243" lon="4.63803">
        <ele>452</ele>
        <time>2021-10-13T13:52:44.000Z</time>
      </trkpt>
      <trkpt lat="46.17246" lon="4.63828">
        <ele>452.60000610352</ele>
        <time>2021-10-13T13:52:49.000Z</time>
      </trkpt>
      <trkpt lat="46.17251" lon="4.63866">
        <ele>453</ele>
        <time>2021-10-13T13:52:57.000Z</time>
      </trkpt>
      <trkpt lat="46.17252" lon="4.6388">
        <ele>453.20001220703</ele>
        <time>2021-10-13T13:53:00.000Z</time>
      </trkpt>
      <trkpt lat="46.17266" lon="4.63947">
        <ele>453.79998779297</ele>
        <time>2021-10-13T13:53:12.000Z</time>
      </trkpt>
      <trkpt lat="46.17285" lon="4.63988">
        <ele>449.7</ele>
      </trkpt>
      <trkpt lat="46.17323" lon="4.63936">
        <ele>452.7</ele>
      </trkpt>
      <trkpt lat="46.17338" lon="4.63866">
        <ele>456.4</ele>
      </trkpt>
      <trkpt lat="46.17405" lon="4.63784">
        <ele>462.5</ele>
      </trkpt>
      <trkpt lat="46.17468" lon="4.63709">
        <ele>469.9</ele>
      </trkpt>
      <trkpt lat="46.17512" lon="4.63655">
        <ele>475.2</ele>
      </trkpt>
      <trkpt lat="46.17665" lon="4.63512">
        <ele>487.7</ele>
      </trkpt>
      <trkpt lat="46.17772" lon="4.63391">
        <ele>496.6</ele>
      </trkpt>
      <trkpt lat="46.17851" lon="4.63276">
        <ele>512.59997558594</ele>
        <time>2021-10-13T13:56:37.000Z</time>
      </trkpt>
      <trkpt lat="46.17879" lon="4.63251">
        <ele>516.20001220703</ele>
        <time>2021-10-13T13:56:45.000Z</time>
      </trkpt>
      <trkpt lat="46.17896" lon="4.63234">
        <ele>516.59997558594</ele>
        <time>2021-10-13T13:56:50.000Z</time>
      </trkpt>
      <trkpt lat="46.17924" lon="4.63194">
        <ele>521.79998779297</ele>
        <time>2021-10-13T13:57:00.000Z</time>
      </trkpt>
      <trkpt lat="46.17945" lon="4.63171">
        <ele>524.79998779297</ele>
        <time>2021-10-13T13:57:07.000Z</time>
      </trkpt>
      <trkpt lat="46.1796" lon="4.63152">
        <ele>526.59997558594</ele>
        <time>2021-10-13T13:57:12.000Z</time>
      </trkpt>
      <trkpt lat="46.17978" lon="4.63124">
        <ele>529.79998779297</ele>
        <time>2021-10-13T13:57:19.000Z</time>
      </trkpt>
      <trkpt lat="46.18" lon="4.63097">
        <ele>534.59997558594</ele>
        <time>2021-10-13T13:57:27.000Z</time>
      </trkpt>
      <trkpt lat="46.18016" lon="4.63068">
        <ele>538.79998779297</ele>
        <time>2021-10-13T13:57:34.000Z</time>
      </trkpt>
      <trkpt lat="46.18029" lon="4.63036">
        <ele>541</ele>
        <time>2021-10-13T13:57:41.000Z</time>
      </trkpt>
      <trkpt lat="46.18037" lon="4.63004">
        <ele>543.79998779297</ele>
        <time>2021-10-13T13:57:47.000Z</time>
      </trkpt>
      <trkpt lat="46.18042" lon="4.62972">
        <ele>544.40002441406</ele>
        <time>2021-10-13T13:57:52.000Z</time>
      </trkpt>
      <trkpt lat="46.18048" lon="4.62911">
        <ele>546.40002441406</ele>
        <time>2021-10-13T13:58:02.000Z</time>
      </trkpt>
      <trkpt lat="46.18049" lon="4.62886">
        <ele>547.59997558594</ele>
        <time>2021-10-13T13:58:06.000Z</time>
      </trkpt>
      <trkpt lat="46.18049" lon="4.62862">
        <ele>549.59997558594</ele>
        <time>2021-10-13T13:58:10.000Z</time>
      </trkpt>
      <trkpt lat="46.18056" lon="4.62839">
        <ele>553.59997558594</ele>
        <time>2021-10-13T13:58:14.000Z</time>
      </trkpt>
      <trkpt lat="46.18065" lon="4.62826">
        <ele>557.20001220703</ele>
        <time>2021-10-13T13:58:17.000Z</time>
      </trkpt>
      <trkpt lat="46.1808" lon="4.62816">
        <ele>561.40002441406</ele>
        <time>2021-10-13T13:58:21.000Z</time>
      </trkpt>
      <trkpt lat="46.18104" lon="4.62805">
        <ele>565.59997558594</ele>
        <time>2021-10-13T13:58:27.000Z</time>
      </trkpt>
      <trkpt lat="46.18108" lon="4.62804">
        <ele>565.79998779297</ele>
        <time>2021-10-13T13:58:28.000Z</time>
      </trkpt>
      <trkpt lat="46.18119" lon="4.628">
        <ele>566.40002441406</ele>
        <time>2021-10-13T13:58:31.000Z</time>
      </trkpt>
      <trkpt lat="46.18133" lon="4.62797">
        <ele>567.59997558594</ele>
        <time>2021-10-13T13:58:35.000Z</time>
      </trkpt>
      <trkpt lat="46.18149" lon="4.62802">
        <ele>568.40002441406</ele>
        <time>2021-10-13T13:58:40.000Z</time>
      </trkpt>
      <trkpt lat="46.18158" lon="4.62807">
        <ele>568.40002441406</ele>
        <time>2021-10-13T13:58:43.000Z</time>
      </trkpt>
      <trkpt lat="46.18181" lon="4.62815">
        <ele>571.20001220703</ele>
        <time>2021-10-13T13:58:50.000Z</time>
      </trkpt>
      <trkpt lat="46.18194" lon="4.62818">
        <ele>572.79998779297</ele>
        <time>2021-10-13T13:58:54.000Z</time>
      </trkpt>
      <trkpt lat="46.18236" lon="4.62813">
        <ele>578.59997558594</ele>
        <time>2021-10-13T13:59:04.000Z</time>
      </trkpt>
      <trkpt lat="46.18238" lon="4.62809">
        <ele>579.59997558594</ele>
        <time>2021-10-13T13:59:05.000Z</time>
      </trkpt>
      <trkpt lat="46.18237" lon="4.62787">
        <ele>584</ele>
        <time>2021-10-13T13:59:10.000Z</time>
      </trkpt>
      <trkpt lat="46.1823" lon="4.62767">
        <ele>585.59997558594</ele>
        <time>2021-10-13T13:59:15.000Z</time>
      </trkpt>
      <trkpt lat="46.18227" lon="4.62744">
        <ele>587.59997558594</ele>
        <time>2021-10-13T13:59:20.000Z</time>
      </trkpt>
      <trkpt lat="46.18224" lon="4.62716">
        <ele>589</ele>
        <time>2021-10-13T13:59:26.000Z</time>
      </trkpt>
      <trkpt lat="46.18231" lon="4.62688">
        <ele>592</ele>
        <time>2021-10-13T13:59:32.000Z</time>
      </trkpt>
      <trkpt lat="46.18242" lon="4.62655">
        <ele>596.40002441406</ele>
        <time>2021-10-13T13:59:39.000Z</time>
      </trkpt>
      <trkpt lat="46.18254" lon="4.62613">
        <ele>600.59997558594</ele>
        <time>2021-10-13T13:59:48.000Z</time>
      </trkpt>
      <trkpt lat="46.18255" lon="4.62602">
        <ele>601.79998779297</ele>
        <time>2021-10-13T13:59:50.000Z</time>
      </trkpt>
      <trkpt lat="46.18259" lon="4.62558">
        <ele>606</ele>
        <time>2021-10-13T13:59:59.000Z</time>
      </trkpt>
      <trkpt lat="46.18257" lon="4.62542">
        <ele>606.40002441406</ele>
        <time>2021-10-13T14:00:02.000Z</time>
      </trkpt>
      <trkpt lat="46.18258" lon="4.6252">
        <ele>607.40002441406</ele>
        <time>2021-10-13T14:00:06.000Z</time>
      </trkpt>
      <trkpt lat="46.18258" lon="4.62509">
        <ele>608</ele>
        <time>2021-10-13T14:00:08.000Z</time>
      </trkpt>
      <trkpt lat="46.18261" lon="4.6246">
        <ele>609.59997558594</ele>
        <time>2021-10-13T14:00:17.000Z</time>
      </trkpt>
      <trkpt lat="46.18273" lon="4.62399">
        <ele>617.59997558594</ele>
        <time>2021-10-13T14:00:29.000Z</time>
      </trkpt>
      <trkpt lat="46.18289" lon="4.62371">
        <ele>622.40002441406</ele>
        <time>2021-10-13T14:00:37.000Z</time>
      </trkpt>
      <trkpt lat="46.183" lon="4.62348">
        <ele>625.59997558594</ele>
        <time>2021-10-13T14:00:43.000Z</time>
      </trkpt>
      <trkpt lat="46.18309" lon="4.6232">
        <ele>628.20001220703</ele>
        <time>2021-10-13T14:00:50.000Z</time>
      </trkpt>
      <trkpt lat="46.18323" lon="4.62291">
        <ele>630.20001220703</ele>
        <time>2021-10-13T14:00:57.000Z</time>
      </trkpt>
      <trkpt lat="46.1834" lon="4.62271">
        <ele>631.59997558594</ele>
        <time>2021-10-13T14:01:04.000Z</time>
      </trkpt>
      <trkpt lat="46.18352" lon="4.6226">
        <ele>633.40002441406</ele>
        <time>2021-10-13T14:01:09.000Z</time>
      </trkpt>
      <trkpt lat="46.18366" lon="4.62249">
        <ele>635</ele>
        <time>2021-10-13T14:01:15.000Z</time>
      </trkpt>
      <trkpt lat="46.18378" lon="4.62243">
        <ele>636.79998779297</ele>
        <time>2021-10-13T14:01:20.000Z</time>
      </trkpt>
      <trkpt lat="46.18396" lon="4.62225">
        <ele>640</ele>
        <time>2021-10-13T14:01:27.000Z</time>
      </trkpt>
      <trkpt lat="46.18413" lon="4.62209">
        <ele>642.79998779297</ele>
        <time>2021-10-13T14:01:33.000Z</time>
      </trkpt>
      <trkpt lat="46.18443" lon="4.62175">
        <ele>647.20001220703</ele>
        <time>2021-10-13T14:01:44.000Z</time>
      </trkpt>
      <trkpt lat="46.18468" lon="4.62164">
        <ele>651.40002441406</ele>
        <time>2021-10-13T14:01:54.000Z</time>
      </trkpt>
      <trkpt lat="46.18484" lon="4.62171">
        <ele>652.40002441406</ele>
        <time>2021-10-13T14:02:01.000Z</time>
      </trkpt>
      <trkpt lat="46.18506" lon="4.62192">
        <ele>654</ele>
        <time>2021-10-13T14:02:10.000Z</time>
      </trkpt>
      <trkpt lat="46.18528" lon="4.62209">
        <ele>656</ele>
        <time>2021-10-13T14:02:18.000Z</time>
      </trkpt>
      <trkpt lat="46.18539" lon="4.62225">
        <ele>657.40002441406</ele>
        <time>2021-10-13T14:02:22.000Z</time>
      </trkpt>
      <trkpt lat="46.18559" lon="4.62252">
        <ele>659.79998779297</ele>
        <time>2021-10-13T14:02:29.000Z</time>
      </trkpt>
      <trkpt lat="46.18578" lon="4.62281">
        <ele>662.20001220703</ele>
        <time>2021-10-13T14:02:37.000Z</time>
      </trkpt>
      <trkpt lat="46.18602" lon="4.62306">
        <ele>664.79998779297</ele>
        <time>2021-10-13T14:02:46.000Z</time>
      </trkpt>
      <trkpt lat="46.18632" lon="4.62335">
        <ele>668.20001220703</ele>
        <time>2021-10-13T14:02:57.000Z</time>
      </trkpt>
      <trkpt lat="46.18666" lon="4.62361">
        <ele>671.59997558594</ele>
        <time>2021-10-13T14:03:09.000Z</time>
      </trkpt>
      <trkpt lat="46.18695" lon="4.62378">
        <ele>675</ele>
        <time>2021-10-13T14:03:19.000Z</time>
      </trkpt>
      <trkpt lat="46.187" lon="4.62381">
        <ele>675.20001220703</ele>
        <time>2021-10-13T14:03:28.000Z</time>
      </trkpt>
      <trkpt lat="46.18713" lon="4.62385">
        <ele>676.79998779297</ele>
        <time>2021-10-13T14:05:28.000Z</time>
      </trkpt>
      <trkpt lat="46.1876" lon="4.62413">
        <ele>680.59997558594</ele>
        <time>2021-10-13T14:05:43.000Z</time>
      </trkpt>
      <trkpt lat="46.18788" lon="4.62428">
        <ele>682.20001220703</ele>
        <time>2021-10-13T14:05:53.000Z</time>
      </trkpt>
      <trkpt lat="46.18789" lon="4.62463">
        <ele>675.9</ele>
        <time>2021-10-13T14:06:00.000Z</time>
      </trkpt>
      <trkpt lat="46.18802" lon="4.62501">
        <ele>673.7</ele>
        <time>2021-10-13T14:06:13.000Z</time>
      </trkpt>
      <trkpt lat="46.18826" lon="4.62529">
        <ele>672.5</ele>
        <time>2021-10-13T14:06:21.000Z</time>
      </trkpt>
      <trkpt lat="46.18856" lon="4.62552">
        <ele>671.4</ele>
        <time>2021-10-13T14:06:30.000Z</time>
      </trkpt>
      <trkpt lat="46.1888" lon="4.62567">
        <ele>670.6</ele>
        <time>2021-10-13T14:06:37.000Z</time>
      </trkpt>
      <trkpt lat="46.18898" lon="4.62584">
        <ele>669.3</ele>
        <time>2021-10-13T14:06:44.000Z</time>
      </trkpt>
      <trkpt lat="46.18907" lon="4.62601">
        <ele>669.7</ele>
        <time>2021-10-13T14:06:51.000Z</time>
      </trkpt>
      <trkpt lat="46.18852" lon="4.62675">
        <ele>663</ele>
      </trkpt>
      <trkpt lat="46.18801" lon="4.62774">
        <ele>658.8</ele>
      </trkpt>
      <trkpt lat="46.1877" lon="4.62848">
        <ele>650.2</ele>
      </trkpt>
      <trkpt lat="46.18766" lon="4.62931">
        <ele>644.3</ele>
      </trkpt>
      <trkpt lat="46.18813" lon="4.63032">
        <ele>640.7</ele>
      </trkpt>
      <trkpt lat="46.18864" lon="4.63086">
        <ele>637.9</ele>
      </trkpt>
      <trkpt lat="46.18897" lon="4.63107">
        <ele>639.2</ele>
      </trkpt>
      <trkpt lat="46.1893" lon="4.63197">
        <ele>632.1</ele>
      </trkpt>
      <trkpt lat="46.18939" lon="4.63252">
        <ele>629</ele>
      </trkpt>
      <trkpt lat="46.18913" lon="4.63274">
        <ele>624.5</ele>
      </trkpt>
      <trkpt lat="46.18853" lon="4.63283">
        <ele>614.2</ele>
      </trkpt>
      <trkpt lat="46.18742" lon="4.63361">
        <ele>604.7</ele>
      </trkpt>
      <trkpt lat="46.18587" lon="4.63476">
        <ele>591.1</ele>
      </trkpt>
      <trkpt lat="46.18524" lon="4.63523">
        <ele>585.6</ele>
      </trkpt>
      <trkpt lat="46.18446" lon="4.63661">
        <ele>568.4</ele>
      </trkpt>
      <trkpt lat="46.18497" lon="4.63663">
        <ele>567.7</ele>
      </trkpt>
      <trkpt lat="46.18539" lon="4.63634">
        <ele>568.6</ele>
      </trkpt>
      <trkpt lat="46.18579" lon="4.63629">
        <ele>565.9</ele>
      </trkpt>
      <trkpt lat="46.18615" lon="4.63658">
        <ele>560.1</ele>
      </trkpt>
      <trkpt lat="46.18666" lon="4.63695">
        <ele>553.3</ele>
      </trkpt>
      <trkpt lat="46.18711" lon="4.63727">
        <ele>554.9</ele>
      </trkpt>
      <trkpt lat="46.18721" lon="4.63751">
        <ele>551.7</ele>
      </trkpt>
      <trkpt lat="46.18729" lon="4.63804">
        <ele>544</ele>
      </trkpt>
      <trkpt lat="46.18738" lon="4.63837">
        <ele>540.6</ele>
      </trkpt>
      <trkpt lat="46.18747" lon="4.63872">
        <ele>538</ele>
      </trkpt>
      <trkpt lat="46.18771" lon="4.63912">
        <ele>540</ele>
      </trkpt>
      <trkpt lat="46.18784" lon="4.63936">
        <ele>541</ele>
      </trkpt>
      <trkpt lat="46.18792" lon="4.63963">
        <ele>539.6</ele>
      </trkpt>
      <trkpt lat="46.18788" lon="4.64">
        <ele>534</ele>
      </trkpt>
      <trkpt lat="46.18768" lon="4.64025">
        <ele>527.3</ele>
      </trkpt>
      <trkpt lat="46.18798" lon="4.64066">
        <ele>530.8</ele>
      </trkpt>
      <trkpt lat="46.18791" lon="4.64136">
        <ele>523.3</ele>
      </trkpt>
      <trkpt lat="46.1878" lon="4.64207">
        <ele>517</ele>
      </trkpt>
      <trkpt lat="46.18754" lon="4.64261">
        <ele>511.9</ele>
      </trkpt>
      <trkpt lat="46.1876" lon="4.64286">
        <ele>510.9</ele>
      </trkpt>
      <trkpt lat="46.18795" lon="4.64311">
        <ele>510.6</ele>
      </trkpt>
      <trkpt lat="46.18843" lon="4.64303">
        <ele>513.9</ele>
      </trkpt>
      <trkpt lat="46.18899" lon="4.6427">
        <ele>522.6</ele>
      </trkpt>
      <trkpt lat="46.18938" lon="4.64267">
        <ele>528.5</ele>
      </trkpt>
      <trkpt lat="46.18951" lon="4.643">
        <ele>529.2</ele>
      </trkpt>
      <trkpt lat="46.18943" lon="4.64396">
        <ele>524.2</ele>
      </trkpt>
      <trkpt lat="46.18945" lon="4.64456">
        <ele>521.6</ele>
      </trkpt>
      <trkpt lat="46.18971" lon="4.64523">
        <ele>522.5</ele>
      </trkpt>
      <trkpt lat="46.19008" lon="4.64558">
        <ele>524</ele>
      </trkpt>
      <trkpt lat="46.19067" lon="4.64558">
        <ele>529.8</ele>
      </trkpt>
      <trkpt lat="46.19112" lon="4.64534">
        <ele>543.8</ele>
      </trkpt>
      <trkpt lat="46.19148" lon="4.6456">
        <ele>545.8</ele>
      </trkpt>
      <trkpt lat="46.19168" lon="4.64593">
        <ele>544</ele>
      </trkpt>
      <trkpt lat="46.19172" lon="4.64667">
        <ele>534.5</ele>
      </trkpt>
      <trkpt lat="46.19211" lon="4.64746">
        <ele>534.3</ele>
      </trkpt>
      <trkpt lat="46.19247" lon="4.6483">
        <ele>536.7</ele>
      </trkpt>
      <trkpt lat="46.1921" lon="4.64878">
        <ele>534.3</ele>
      </trkpt>
      <trkpt lat="46.19147" lon="4.64972">
        <ele>539.4</ele>
      </trkpt>
      <trkpt lat="46.19133" lon="4.65006">
        <ele>541.4</ele>
      </trkpt>
      <trkpt lat="46.19134" lon="4.65113">
        <ele>549.3</ele>
      </trkpt>
      <trkpt lat="46.19149" lon="4.65182">
        <ele>550.8</ele>
      </trkpt>
      <trkpt lat="46.19157" lon="4.65221">
        <ele>550.7</ele>
      </trkpt>
      <trkpt lat="46.19157" lon="4.65291">
        <ele>547.7</ele>
      </trkpt>
      <trkpt lat="46.19154" lon="4.65339">
        <ele>545</ele>
      </trkpt>
      <trkpt lat="46.19189" lon="4.65433">
        <ele>551.2</ele>
      </trkpt>
      <trkpt lat="46.19219" lon="4.65511">
        <ele>549.2</ele>
      </trkpt>
      <trkpt lat="46.19261" lon="4.65568">
        <ele>548.3</ele>
      </trkpt>
      <trkpt lat="46.19288" lon="4.65603">
        <ele>546.7</ele>
      </trkpt>
      <trkpt lat="46.19309" lon="4.65655">
        <ele>540.9</ele>
      </trkpt>
      <trkpt lat="46.19327" lon="4.65702">
        <ele>540</ele>
      </trkpt>
      <trkpt lat="46.1935" lon="4.65705">
        <ele>541.9</ele>
      </trkpt>
      <trkpt lat="46.1938" lon="4.65728">
        <ele>542.5</ele>
      </trkpt>
      <trkpt lat="46.19419" lon="4.65772">
        <ele>544.5</ele>
      </trkpt>
      <trkpt lat="46.19445" lon="4.65787">
        <ele>544.6</ele>
      </trkpt>
      <trkpt lat="46.19473" lon="4.6582">
        <ele>547</ele>
      </trkpt>
      <trkpt lat="46.195" lon="4.65861">
        <ele>548.6</ele>
      </trkpt>
      <trkpt lat="46.19529" lon="4.65878">
        <ele>550.6</ele>
      </trkpt>
      <trkpt lat="46.19544" lon="4.65917">
        <ele>552.7</ele>
      </trkpt>
      <trkpt lat="46.19586" lon="4.65945">
        <ele>556.5</ele>
      </trkpt>
      <trkpt lat="46.19609" lon="4.65986">
        <ele>555.1</ele>
      </trkpt>
      <trkpt lat="46.1963" lon="4.66024">
        <ele>553.1</ele>
      </trkpt>
      <trkpt lat="46.19638" lon="4.66124">
        <ele>542.5</ele>
      </trkpt>
      <trkpt lat="46.19659" lon="4.66165">
        <ele>540.8</ele>
      </trkpt>
      <trkpt lat="46.19639" lon="4.66235">
        <ele>534.4</ele>
      </trkpt>
      <trkpt lat="46.19623" lon="4.66361">
        <ele>529.6</ele>
      </trkpt>
      <trkpt lat="46.19617" lon="4.66421">
        <ele>527.7</ele>
      </trkpt>
      <trkpt lat="46.19619" lon="4.66461">
        <ele>525.2</ele>
      </trkpt>
      <trkpt lat="46.19604" lon="4.66508">
        <ele>526</ele>
      </trkpt>
      <trkpt lat="46.19616" lon="4.66553">
        <ele>520.6</ele>
      </trkpt>
      <trkpt lat="46.1965" lon="4.66611">
        <ele>515.5</ele>
      </trkpt>
      <trkpt lat="46.19689" lon="4.66681">
        <ele>513.7</ele>
      </trkpt>
      <trkpt lat="46.19718" lon="4.66747">
        <ele>513.6</ele>
      </trkpt>
      <trkpt lat="46.19801" lon="4.6684">
        <ele>509.2</ele>
      </trkpt>
      <trkpt lat="46.19887" lon="4.66916">
        <ele>505.8</ele>
      </trkpt>
      <trkpt lat="46.19939" lon="4.66966">
        <ele>498.8</ele>
      </trkpt>
      <trkpt lat="46.19974" lon="4.67021">
        <ele>494.7</ele>
      </trkpt>
      <trkpt lat="46.19999" lon="4.67095">
        <ele>488.6</ele>
      </trkpt>
      <trkpt lat="46.20042" lon="4.67175">
        <ele>477.9</ele>
      </trkpt>
      <trkpt lat="46.20094" lon="4.67225">
        <ele>471.1</ele>
      </trkpt>
      <trkpt lat="46.20109" lon="4.67248">
        <ele>467.4</ele>
      </trkpt>
      <trkpt lat="46.20113" lon="4.67285">
        <ele>465</ele>
      </trkpt>
      <trkpt lat="46.20126" lon="4.67404">
        <ele>463.7</ele>
      </trkpt>
      <trkpt lat="46.20159" lon="4.67492">
        <ele>464.8</ele>
      </trkpt>
      <trkpt lat="46.20198" lon="4.67678">
        <ele>463.4</ele>
      </trkpt>
      <trkpt lat="46.2023" lon="4.67735">
        <ele>462.7</ele>
      </trkpt>
      <trkpt lat="46.20286" lon="4.67797">
        <ele>460.7</ele>
      </trkpt>
      <trkpt lat="46.2036" lon="4.67835">
        <ele>464.5</ele>
      </trkpt>
      <trkpt lat="46.20375" lon="4.67884">
        <ele>461.1</ele>
      </trkpt>
      <trkpt lat="46.20405" lon="4.67961">
        <ele>462.1</ele>
      </trkpt>
      <trkpt lat="46.20429" lon="4.68017">
        <ele>462.1</ele>
      </trkpt>
      <trkpt lat="46.20474" lon="4.68072">
        <ele>458.4</ele>
      </trkpt>
      <trkpt lat="46.20518" lon="4.6808">
        <ele>457.2</ele>
      </trkpt>
      <trkpt lat="46.20612" lon="4.68124">
        <ele>445</ele>
      </trkpt>
      <trkpt lat="46.2069" lon="4.68177">
        <ele>437</ele>
      </trkpt>
      <trkpt lat="46.20699" lon="4.68204">
        <ele>435.2</ele>
      </trkpt>
      <trkpt lat="46.20688" lon="4.68237">
        <ele>435.7</ele>
      </trkpt>
      <trkpt lat="46.20664" lon="4.68286">
        <ele>435.6</ele>
      </trkpt>
      <trkpt lat="46.20709" lon="4.68295">
        <ele>432.4</ele>
      </trkpt>
      <trkpt lat="46.20789" lon="4.68377">
        <ele>428.5</ele>
      </trkpt>
      <trkpt lat="46.20848" lon="4.68432">
        <ele>428.2</ele>
      </trkpt>
      <trkpt lat="46.20918" lon="4.68424">
        <ele>430.5</ele>
      </trkpt>
      <trkpt lat="46.20959" lon="4.68397">
        <ele>432.6</ele>
      </trkpt>
      <trkpt lat="46.21017" lon="4.68345">
        <ele>432.7</ele>
      </trkpt>
      <trkpt lat="46.21095" lon="4.68306">
        <ele>433.4</ele>
      </trkpt>
      <trkpt lat="46.21167" lon="4.68284">
        <ele>435.7</ele>
      </trkpt>
      <trkpt lat="46.21195" lon="4.68289">
        <ele>435.2</ele>
      </trkpt>
      <trkpt lat="46.21219" lon="4.68315">
        <ele>436.8</ele>
      </trkpt>
      <trkpt lat="46.21268" lon="4.68382">
        <ele>439.5</ele>
      </trkpt>
      <trkpt lat="46.21346" lon="4.6846">
        <ele>443.4</ele>
      </trkpt>
      <trkpt lat="46.21364" lon="4.68501">
        <ele>445.4</ele>
      </trkpt>
      <trkpt lat="46.21378" lon="4.68539">
        <ele>445.4</ele>
      </trkpt>
      <trkpt lat="46.21385" lon="4.68589">
        <ele>446.5</ele>
      </trkpt>
      <trkpt lat="46.21398" lon="4.6863">
        <ele>445.9</ele>
      </trkpt>
      <trkpt lat="46.21398" lon="4.68705">
        <ele>448.4</ele>
      </trkpt>
      <trkpt lat="46.21393" lon="4.68784">
        <ele>454.2</ele>
      </trkpt>
      <trkpt lat="46.21415" lon="4.68815">
        <ele>453</ele>
      </trkpt>
      <trkpt lat="46.21426" lon="4.68855">
        <ele>457.5</ele>
      </trkpt>
      <trkpt lat="46.21465" lon="4.68881">
        <ele>454.5</ele>
      </trkpt>
      <trkpt lat="46.21504" lon="4.68922">
        <ele>454.3</ele>
      </trkpt>
      <trkpt lat="46.21516" lon="4.68941">
        <ele>453.3</ele>
      </trkpt>
      <trkpt lat="46.21556" lon="4.6906">
        <ele>458.5</ele>
      </trkpt>
      <trkpt lat="46.216" lon="4.6916">
        <ele>464.2</ele>
      </trkpt>
      <trkpt lat="46.21645" lon="4.69192">
        <ele>463.7</ele>
      </trkpt>
      <trkpt lat="46.21694" lon="4.69221">
        <ele>464.4</ele>
      </trkpt>
      <trkpt lat="46.2173" lon="4.69222">
        <ele>460.8</ele>
      </trkpt>
      <trkpt lat="46.21751" lon="4.6924">
        <ele>461.3</ele>
      </trkpt>
      <trkpt lat="46.21762" lon="4.69254">
        <ele>461.2</ele>
      </trkpt>
      <trkpt lat="46.21771" lon="4.69301">
        <ele>464.7</ele>
      </trkpt>
      <trkpt lat="46.21805" lon="4.69404">
        <ele>465.1</ele>
      </trkpt>
      <trkpt lat="46.2183" lon="4.6946">
        <ele>464.3</ele>
      </trkpt>
      <trkpt lat="46.21838" lon="4.69548">
        <ele>466.8</ele>
      </trkpt>
      <trkpt lat="46.21838" lon="4.69623">
        <ele>467.6</ele>
      </trkpt>
      <trkpt lat="46.21773" lon="4.69689">
        <ele>473.4</ele>
      </trkpt>
      <trkpt lat="46.21721" lon="4.69776">
        <ele>467.5</ele>
      </trkpt>
      <trkpt lat="46.21687" lon="4.69872">
        <ele>460.3</ele>
      </trkpt>
      <trkpt lat="46.2168" lon="4.69938">
        <ele>456</ele>
      </trkpt>
      <trkpt lat="46.21695" lon="4.69972">
        <ele>454</ele>
      </trkpt>
      <trkpt lat="46.21752" lon="4.6999">
        <ele>456.1</ele>
      </trkpt>
      <trkpt lat="46.21825" lon="4.69994">
        <ele>451.6</ele>
      </trkpt>
      <trkpt lat="46.21851" lon="4.70023">
        <ele>448.7</ele>
      </trkpt>
      <trkpt lat="46.21863" lon="4.70043">
        <ele>448.1</ele>
      </trkpt>
      <trkpt lat="46.219" lon="4.70088">
        <ele>450.8</ele>
      </trkpt>
      <trkpt lat="46.21928" lon="4.70129">
        <ele>453.7</ele>
      </trkpt>
      <trkpt lat="46.21953" lon="4.70161">
        <ele>456.2</ele>
      </trkpt>
      <trkpt lat="46.21995" lon="4.70269">
        <ele>455.8</ele>
      </trkpt>
      <trkpt lat="46.2202" lon="4.70327">
        <ele>455.3</ele>
      </trkpt>
      <trkpt lat="46.22051" lon="4.70363">
        <ele>456.4</ele>
      </trkpt>
      <trkpt lat="46.22099" lon="4.70404">
        <ele>458.9</ele>
      </trkpt>
      <trkpt lat="46.22132" lon="4.70431">
        <ele>460.8</ele>
      </trkpt>
      <trkpt lat="46.22141" lon="4.70444">
        <ele>460.3</ele>
      </trkpt>
      <trkpt lat="46.22147" lon="4.70466">
        <ele>457.1</ele>
      </trkpt>
      <trkpt lat="46.22164" lon="4.70515">
        <ele>452.6</ele>
      </trkpt>
      <trkpt lat="46.22219" lon="4.7063">
        <ele>447.2</ele>
      </trkpt>
      <trkpt lat="46.22268" lon="4.70718">
        <ele>441.9</ele>
      </trkpt>
      <trkpt lat="46.22289" lon="4.70732">
        <ele>440.8</ele>
      </trkpt>
      <trkpt lat="46.22301" lon="4.70752">
        <ele>438.9</ele>
      </trkpt>
      <trkpt lat="46.22315" lon="4.70765">
        <ele>438.1</ele>
      </trkpt>
      <trkpt lat="46.22313" lon="4.70789">
        <ele>434.9</ele>
      </trkpt>
      <trkpt lat="46.22292" lon="4.70855">
        <ele>424.5</ele>
      </trkpt>
      <trkpt lat="46.22271" lon="4.70903">
        <ele>418.3</ele>
      </trkpt>
      <trkpt lat="46.2226" lon="4.70965">
        <ele>411.6</ele>
      </trkpt>
      <trkpt lat="46.22254" lon="4.71052">
        <ele>402.2</ele>
      </trkpt>
      <trkpt lat="46.22255" lon="4.7107">
        <ele>400</ele>
      </trkpt>
      <trkpt lat="46.22217" lon="4.71137">
        <ele>386.2</ele>
      </trkpt>
      <trkpt lat="46.22268" lon="4.71117">
        <ele>389.3</ele>
      </trkpt>
      <trkpt lat="46.22307" lon="4.71075">
        <ele>394.5</ele>
      </trkpt>
      <trkpt lat="46.2234" lon="4.71046">
        <ele>398</ele>
      </trkpt>
      <trkpt lat="46.2239" lon="4.71055">
        <ele>388.4</ele>
      </trkpt>
      <trkpt lat="46.2242" lon="4.71046">
        <ele>386.3</ele>
      </trkpt>
      <trkpt lat="46.22449" lon="4.71009">
        <ele>388.8</ele>
      </trkpt>
      <trkpt lat="46.22483" lon="4.70984">
        <ele>384.6</ele>
      </trkpt>
      <trkpt lat="46.22506" lon="4.70941">
        <ele>384.3</ele>
      </trkpt>
      <trkpt lat="46.22519" lon="4.70888">
        <ele>384.4</ele>
      </trkpt>
      <trkpt lat="46.22546" lon="4.70909">
        <ele>375.9</ele>
      </trkpt>
      <trkpt lat="46.22585" lon="4.70956">
        <ele>363.2</ele>
      </trkpt>
      <trkpt lat="46.22598" lon="4.71002">
        <ele>357.8</ele>
      </trkpt>
      <trkpt lat="46.2261" lon="4.71067">
        <ele>351.2</ele>
      </trkpt>
      <trkpt lat="46.22619" lon="4.71113">
        <ele>345.2</ele>
      </trkpt>
      <trkpt lat="46.22618" lon="4.7117">
        <ele>339.3</ele>
      </trkpt>
      <trkpt lat="46.22606" lon="4.71204">
        <ele>337.6</ele>
      </trkpt>
      <trkpt lat="46.22575" lon="4.71252">
        <ele>336.7</ele>
      </trkpt>
      <trkpt lat="46.22554" lon="4.71322">
        <ele>324.4</ele>
      </trkpt>
      <trkpt lat="46.22553" lon="4.7136">
        <ele>317.7</ele>
      </trkpt>
      <trkpt lat="46.22529" lon="4.71405">
        <ele>311.1</ele>
      </trkpt>
      <trkpt lat="46.22512" lon="4.71425">
        <ele>309.4</ele>
      </trkpt>
      <trkpt lat="46.22555" lon="4.71521">
        <ele>296.9</ele>
      </trkpt>
      <trkpt lat="46.22574" lon="4.71572">
        <ele>292.1</ele>
      </trkpt>
      <trkpt lat="46.22577" lon="4.71594">
        <ele>290.5</ele>
      </trkpt>
      <trkpt lat="46.226" lon="4.71595">
        <ele>287.4</ele>
      </trkpt>
      <trkpt lat="46.2262" lon="4.71656">
        <ele>280.1</ele>
      </trkpt>
      <trkpt lat="46.22665" lon="4.71638">
        <ele>273.3</ele>
      </trkpt>
      <trkpt lat="46.2272" lon="4.71604">
        <ele>261.9</ele>
      </trkpt>
      <trkpt lat="46.22783" lon="4.71563">
        <ele>249.4</ele>
      </trkpt>
      <trkpt lat="46.22827" lon="4.71513">
        <ele>242.3</ele>
      </trkpt>
      <trkpt lat="46.22855" lon="4.71495">
        <ele>239.9</ele>
      </trkpt>
      <trkpt lat="46.22951" lon="4.7153">
        <ele>230</ele>
      </trkpt>
      <trkpt lat="46.23019" lon="4.71569">
        <ele>229</ele>
      </trkpt>
      <trkpt lat="46.23053" lon="4.71594">
        <ele>230.7</ele>
      </trkpt>
      <trkpt lat="46.23085" lon="4.71632">
        <ele>233.4</ele>
      </trkpt>
      <trkpt lat="46.23065" lon="4.71732">
        <ele>233.5</ele>
      </trkpt>
      <trkpt lat="46.23033" lon="4.71847">
        <ele>231.8</ele>
      </trkpt>
      <trkpt lat="46.22987" lon="4.71965">
        <ele>229.7</ele>
      </trkpt>
      <trkpt lat="46.22962" lon="4.72078">
        <ele>229</ele>
      </trkpt>
      <trkpt lat="46.22957" lon="4.72143">
        <ele>229.7</ele>
      </trkpt>
      <trkpt lat="46.22969" lon="4.72147">
        <ele>230</ele>
      </trkpt>
      <trkpt lat="46.23011" lon="4.72075">
        <ele>231.1</ele>
      </trkpt>
      <trkpt lat="46.23029" lon="4.72044">
        <ele>233.2</ele>
      </trkpt>
      <trkpt lat="46.23101" lon="4.72046">
        <ele>239.4</ele>
      </trkpt>
      <trkpt lat="46.23116" lon="4.7199">
        <ele>240.9</ele>
      </trkpt>
      <trkpt lat="46.23189" lon="4.71988">
        <ele>245.3</ele>
      </trkpt>
      <trkpt lat="46.23229" lon="4.71997">
        <ele>247.1</ele>
      </trkpt>
      <trkpt lat="46.23283" lon="4.71982">
        <ele>249.8</ele>
      </trkpt>
      <trkpt lat="46.23343" lon="4.71953">
        <ele>253</ele>
      </trkpt>
      <trkpt lat="46.234" lon="4.71937">
        <ele>255.7</ele>
      </trkpt>
      <trkpt lat="46.23429" lon="4.71908">
        <ele>257.2</ele>
      </trkpt>
      <trkpt lat="46.23438" lon="4.71914">
        <ele>257.3</ele>
      </trkpt>
      <trkpt lat="46.23419" lon="4.71961">
        <ele>255.5</ele>
      </trkpt>
      <trkpt lat="46.23397" lon="4.71991">
        <ele>255.60000610352</ele>
        <time>2021-10-13T15:38:45.000Z</time>
      </trkpt>
      <trkpt lat="46.23382" lon="4.72031">
        <ele>253.19999694824</ele>
        <time>2021-10-13T15:38:50.000Z</time>
      </trkpt>
      <trkpt lat="46.23369" lon="4.72053">
        <ele>252.60000610352</ele>
        <time>2021-10-13T15:38:53.000Z</time>
      </trkpt>
      <trkpt lat="46.23349" lon="4.72104">
        <ele>250.80000305176</ele>
        <time>2021-10-13T15:38:59.000Z</time>
      </trkpt>
      <trkpt lat="46.23344" lon="4.72128">
        <ele>250.60000610352</ele>
        <time>2021-10-13T15:39:02.000Z</time>
      </trkpt>
      <trkpt lat="46.23343" lon="4.72177">
        <ele>252.19999694824</ele>
        <time>2021-10-13T15:39:08.000Z</time>
      </trkpt>
      <trkpt lat="46.23348" lon="4.72215">
        <ele>252.80000305176</ele>
        <time>2021-10-13T15:39:13.000Z</time>
      </trkpt>
      <trkpt lat="46.23349" lon="4.72235">
        <ele>253.19999694824</ele>
        <time>2021-10-13T15:39:16.000Z</time>
      </trkpt>
      <trkpt lat="46.23335" lon="4.72324">
        <ele>253.39999389648</ele>
        <time>2021-10-13T15:39:29.000Z</time>
      </trkpt>
      <trkpt lat="46.23328" lon="4.72382">
        <ele>254</ele>
        <time>2021-10-13T15:39:36.000Z</time>
      </trkpt>
      <trkpt lat="46.23314" lon="4.72489">
        <ele>255.60000610352</ele>
        <time>2021-10-13T15:39:49.000Z</time>
      </trkpt>
      <trkpt lat="46.23306" lon="4.7256">
        <ele>255.19999694824</ele>
        <time>2021-10-13T15:39:59.000Z</time>
      </trkpt>
      <trkpt lat="46.23301" lon="4.72595">
        <ele>256</ele>
        <time>2021-10-13T15:40:06.000Z</time>
      </trkpt>
      <trkpt lat="46.23287" lon="4.72596">
        <ele>256.39999389648</ele>
        <time>2021-10-13T15:40:11.000Z</time>
      </trkpt>
      <trkpt lat="46.23258" lon="4.72586">
        <ele>256.20001220703</ele>
        <time>2021-10-13T15:40:18.000Z</time>
      </trkpt>
      <trkpt lat="46.23211" lon="4.72567">
        <ele>250.80000305176</ele>
        <time>2021-10-13T15:40:27.000Z</time>
      </trkpt>
      <trkpt lat="46.23195" lon="4.72595">
        <ele>250.39999389648</ele>
        <time>2021-10-13T15:40:33.000Z</time>
      </trkpt>
      <trkpt lat="46.23192" lon="4.72619">
        <ele>250.19999694824</ele>
        <time>2021-10-13T15:40:36.000Z</time>
      </trkpt>
      <trkpt lat="46.23181" lon="4.72705">
        <ele>250.60000610352</ele>
        <time>2021-10-13T15:40:46.000Z</time>
      </trkpt>
      <trkpt lat="46.23166" lon="4.72834">
        <ele>250.19999694824</ele>
        <time>2021-10-13T15:41:01.000Z</time>
      </trkpt>
      <trkpt lat="46.23141" lon="4.73016">
        <ele>248.39999389648</ele>
        <time>2021-10-13T15:41:23.000Z</time>
      </trkpt>
      <trkpt lat="46.23122" lon="4.73109">
        <ele>244.60000610352</ele>
        <time>2021-10-13T15:41:36.000Z</time>
      </trkpt>
      <trkpt lat="46.2311" lon="4.73109">
        <ele>244.19999694824</ele>
        <time>2021-10-13T15:41:40.000Z</time>
      </trkpt>
      <trkpt lat="46.23098" lon="4.731">
        <ele>243.80000305176</ele>
        <time>2021-10-13T15:41:43.000Z</time>
      </trkpt>
      <trkpt lat="46.23084" lon="4.73089">
        <ele>243.19999694824</ele>
        <time>2021-10-13T15:41:46.000Z</time>
      </trkpt>
      <trkpt lat="46.2302" lon="4.73046">
        <ele>242</ele>
        <time>2021-10-13T15:41:59.000Z</time>
      </trkpt>
      <trkpt lat="46.23013" lon="4.73042">
        <ele>241.39999389648</ele>
        <time>2021-10-13T15:42:01.000Z</time>
      </trkpt>
      <trkpt lat="46.22999" lon="4.73055">
        <ele>240.39999389648</ele>
        <time>2021-10-13T15:42:05.000Z</time>
      </trkpt>
      <trkpt lat="46.22935" lon="4.73163">
        <ele>236.19999694824</ele>
        <time>2021-10-13T15:42:21.000Z</time>
      </trkpt>
      <trkpt lat="46.22875" lon="4.73261">
        <ele>232.39999389648</ele>
        <time>2021-10-13T15:42:35.000Z</time>
      </trkpt>
      <trkpt lat="46.22868" lon="4.73272">
        <ele>231.60000610352</ele>
        <time>2021-10-13T15:42:37.000Z</time>
      </trkpt>
      <trkpt lat="46.22858" lon="4.73285">
        <ele>231.19999694824</ele>
        <time>2021-10-13T15:42:42.000Z</time>
      </trkpt>
      <trkpt lat="46.22865" lon="4.73301">
        <ele>230.80000305176</ele>
        <time>2021-10-13T15:42:47.000Z</time>
      </trkpt>
      <trkpt lat="46.22912" lon="4.73368">
        <ele>228.19999694824</ele>
        <time>2021-10-13T15:42:58.000Z</time>
      </trkpt>
      <trkpt lat="46.22926" lon="4.73392">
        <ele>226.80000305176</ele>
        <time>2021-10-13T15:43:01.000Z</time>
      </trkpt>
      <trkpt lat="46.22952" lon="4.73431">
        <ele>226.19999694824</ele>
        <time>2021-10-13T15:43:07.000Z</time>
      </trkpt>
      <trkpt lat="46.22998" lon="4.73492">
        <ele>226</ele>
        <time>2021-10-13T15:43:45.000Z</time>
      </trkpt>
      <trkpt lat="46.23041" lon="4.73559">
        <ele>231.80000305176</ele>
        <time>2021-10-13T15:43:59.000Z</time>
      </trkpt>
      <trkpt lat="46.23059" lon="4.73587">
        <ele>233</ele>
        <time>2021-10-13T15:44:06.000Z</time>
      </trkpt>
      <trkpt lat="46.23092" lon="4.7365">
        <ele>233.5</ele>
      </trkpt>
      <trkpt lat="46.23131" lon="4.7373">
        <ele>234.1</ele>
        <time>2021-10-13T15:44:17.000Z</time>
      </trkpt>
      <trkpt lat="46.23179" lon="4.7382">
        <ele>232.7</ele>
      </trkpt>
      <trkpt lat="46.23227" lon="4.7393">
        <ele>234.3</ele>
        <time>2021-10-13T15:45:12.000Z</time>
      </trkpt>
      <trkpt lat="46.23195" lon="4.74014">
        <ele>236.4</ele>
        <time>2021-10-13T15:45:14.000Z</time>
      </trkpt>
      <trkpt lat="46.23151" lon="4.74164">
        <ele>241.3</ele>
        <time>2021-10-13T15:45:41.000Z</time>
      </trkpt>
      <trkpt lat="46.23051" lon="4.74123">
        <ele>242.1</ele>
      </trkpt>
      <trkpt lat="46.2295" lon="4.74084">
        <ele>238.2</ele>
        <time>2021-10-13T15:47:06.000Z</time>
      </trkpt>
      <trkpt lat="46.22893" lon="4.74062">
        <ele>238.39999389648</ele>
        <time>2021-10-13T15:47:11.000Z</time>
      </trkpt>
      <trkpt lat="46.22894" lon="4.74081">
        <ele>238.39999389648</ele>
        <time>2021-10-13T15:47:16.000Z</time>
      </trkpt>
      <trkpt lat="46.22872" lon="4.74162">
        <ele>239.19999694824</ele>
        <time>2021-10-13T15:47:31.000Z</time>
      </trkpt>
      <trkpt lat="46.22851" lon="4.74227">
        <ele>239.80000305176</ele>
        <time>2021-10-13T15:47:43.000Z</time>
      </trkpt>
      <trkpt lat="46.22845" lon="4.74251">
        <ele>239.80000305176</ele>
        <time>2021-10-13T15:47:47.000Z</time>
      </trkpt>
      <trkpt lat="46.22841" lon="4.74262">
        <ele>240.19999694824</ele>
        <time>2021-10-13T15:47:49.000Z</time>
      </trkpt>
      <trkpt lat="46.22818" lon="4.74339">
        <ele>243</ele>
        <time>2021-10-13T15:48:02.000Z</time>
      </trkpt>
      <trkpt lat="46.22801" lon="4.7441">
        <ele>243.19999694824</ele>
        <time>2021-10-13T15:48:15.000Z</time>
      </trkpt>
      <trkpt lat="46.22775" lon="4.74502">
        <ele>244</ele>
        <time>2021-10-13T15:48:30.000Z</time>
      </trkpt>
      <trkpt lat="46.22744" lon="4.74619">
        <ele>243</ele>
        <time>2021-10-13T15:48:49.000Z</time>
      </trkpt>
      <trkpt lat="46.22741" lon="4.74628">
        <ele>243</ele>
        <time>2021-10-13T15:48:57.000Z</time>
      </trkpt>
      <trkpt lat="46.22734" lon="4.74638">
        <ele>242.80000305176</ele>
        <time>2021-10-13T15:49:03.000Z</time>
      </trkpt>
      <trkpt lat="46.22705" lon="4.7472">
        <ele>242</ele>
        <time>2021-10-13T15:49:16.000Z</time>
      </trkpt>
      <trkpt lat="46.22681" lon="4.74796">
        <ele>241.60000610352</ele>
        <time>2021-10-13T15:49:27.000Z</time>
      </trkpt>
      <trkpt lat="46.22654" lon="4.74894">
        <ele>241</ele>
        <time>2021-10-13T15:49:41.000Z</time>
      </trkpt>
      <trkpt lat="46.22621" lon="4.7498">
        <ele>242.19999694824</ele>
        <time>2021-10-13T15:49:55.000Z</time>
      </trkpt>
      <trkpt lat="46.22565" lon="4.75087">
        <ele>242.60000610352</ele>
        <time>2021-10-13T15:50:13.000Z</time>
      </trkpt>
      <trkpt lat="46.22522" lon="4.75176">
        <ele>243.19999694824</ele>
        <time>2021-10-13T15:50:29.000Z</time>
      </trkpt>
      <trkpt lat="46.2252" lon="4.75178">
        <ele>243.19999694824</ele>
        <time>2021-10-13T15:50:30.000Z</time>
      </trkpt>
      <trkpt lat="46.22507" lon="4.75174">
        <ele>242</ele>
        <time>2021-10-13T15:50:34.000Z</time>
      </trkpt>
      <trkpt lat="46.22495" lon="4.7516">
        <ele>240.80000305176</ele>
        <time>2021-10-13T15:50:37.000Z</time>
      </trkpt>
      <trkpt lat="46.22473" lon="4.75149">
        <ele>239.39999389648</ele>
        <time>2021-10-13T15:50:42.000Z</time>
      </trkpt>
      <trkpt lat="46.22459" lon="4.75186">
        <ele>240.19999694824</ele>
        <time>2021-10-13T15:50:49.000Z</time>
      </trkpt>
      <trkpt lat="46.22456" lon="4.752">
        <ele>240.39999389648</ele>
        <time>2021-10-13T15:50:51.000Z</time>
      </trkpt>
      <trkpt lat="46.22424" lon="4.7533">
        <ele>240</ele>
        <time>2021-10-13T15:51:09.000Z</time>
      </trkpt>
      <trkpt lat="46.22389" lon="4.75464">
        <ele>239</ele>
        <time>2021-10-13T15:51:27.000Z</time>
      </trkpt>
      <trkpt lat="46.22353" lon="4.75596">
        <ele>235.19999694824</ele>
        <time>2021-10-13T15:51:44.000Z</time>
      </trkpt>
      <trkpt lat="46.22322" lon="4.75709">
        <ele>233.80000305176</ele>
        <time>2021-10-13T15:51:59.000Z</time>
      </trkpt>
      <trkpt lat="46.22296" lon="4.75801">
        <ele>234.60000610352</ele>
        <time>2021-10-13T15:52:13.000Z</time>
      </trkpt>
      <trkpt lat="46.2227" lon="4.75894">
        <ele>233</ele>
        <time>2021-10-13T15:52:29.000Z</time>
      </trkpt>
      <trkpt lat="46.22241" lon="4.75997">
        <ele>232</ele>
        <time>2021-10-13T15:52:43.000Z</time>
      </trkpt>
      <trkpt lat="46.22225" lon="4.76062">
        <ele>229.80000305176</ele>
        <time>2021-10-13T15:52:53.000Z</time>
      </trkpt>
      <trkpt lat="46.22217" lon="4.76063">
        <ele>229.19999694824</ele>
        <time>2021-10-13T15:52:57.000Z</time>
      </trkpt>
      <trkpt lat="46.22195" lon="4.76073">
        <ele>227</ele>
        <time>2021-10-13T15:53:04.000Z</time>
      </trkpt>
      <trkpt lat="46.2217" lon="4.76162">
        <ele>225.80000305176</ele>
        <time>2021-10-13T15:53:15.000Z</time>
      </trkpt>
      <trkpt lat="46.22145" lon="4.76255">
        <ele>223.60000610352</ele>
        <time>2021-10-13T15:53:26.000Z</time>
      </trkpt>
      <trkpt lat="46.22121" lon="4.76337">
        <ele>221.60000610352</ele>
        <time>2021-10-13T15:53:35.000Z</time>
      </trkpt>
      <trkpt lat="46.22112" lon="4.76371">
        <ele>221.19999694824</ele>
        <time>2021-10-13T15:53:39.000Z</time>
      </trkpt>
      <trkpt lat="46.22067" lon="4.76529">
        <ele>217.39999389648</ele>
        <time>2021-10-13T15:53:57.000Z</time>
      </trkpt>
      <trkpt lat="46.22037" lon="4.76643">
        <ele>217</ele>
        <time>2021-10-13T15:54:11.000Z</time>
      </trkpt>
      <trkpt lat="46.22035" lon="4.76651">
        <ele>216.80000305176</ele>
        <time>2021-10-13T15:54:12.000Z</time>
      </trkpt>
      <trkpt lat="46.22025" lon="4.76677">
        <ele>216.80000305176</ele>
        <time>2021-10-13T15:54:16.000Z</time>
      </trkpt>
      <trkpt lat="46.22018" lon="4.76687">
        <ele>216.39999389648</ele>
        <time>2021-10-13T15:54:18.000Z</time>
      </trkpt>
      <trkpt lat="46.22005" lon="4.76721">
        <ele>214.39999389648</ele>
        <time>2021-10-13T15:54:24.000Z</time>
      </trkpt>
      <trkpt lat="46.22004" lon="4.76744">
        <ele>213.39999389648</ele>
        <time>2021-10-13T15:54:28.000Z</time>
      </trkpt>
      <trkpt lat="46.21994" lon="4.76781">
        <ele>213.80000305176</ele>
        <time>2021-10-13T15:54:34.000Z</time>
      </trkpt>
      <trkpt lat="46.21987" lon="4.76809">
        <ele>214</ele>
        <time>2021-10-13T15:54:38.000Z</time>
      </trkpt>
      <trkpt lat="46.2198" lon="4.7683">
        <ele>214</ele>
        <time>2021-10-13T15:54:41.000Z</time>
      </trkpt>
      <trkpt lat="46.21965" lon="4.76844">
        <ele>213</ele>
        <time>2021-10-13T15:54:45.000Z</time>
      </trkpt>
      <trkpt lat="46.21948" lon="4.76859">
        <ele>212.80000305176</ele>
        <time>2021-10-13T15:54:50.000Z</time>
      </trkpt>
      <trkpt lat="46.21944" lon="4.76872">
        <ele>212.19999694824</ele>
        <time>2021-10-13T15:54:52.000Z</time>
      </trkpt>
      <trkpt lat="46.21914" lon="4.76934">
        <ele>210.19999694824</ele>
        <time>2021-10-13T15:55:03.000Z</time>
      </trkpt>
      <trkpt lat="46.21897" lon="4.76916">
        <ele>210.19999694824</ele>
        <time>2021-10-13T15:55:11.000Z</time>
      </trkpt>
      <trkpt lat="46.21894" lon="4.76906">
        <ele>210.60000610352</ele>
        <time>2021-10-13T15:55:13.000Z</time>
      </trkpt>
      <trkpt lat="46.2187" lon="4.76854">
        <ele>212</ele>
        <time>2021-10-13T15:55:23.000Z</time>
      </trkpt>
      <trkpt lat="46.21857" lon="4.76826">
        <ele>212</ele>
        <time>2021-10-13T15:55:28.000Z</time>
      </trkpt>
      <trkpt lat="46.21816" lon="4.76751">
        <ele>210.60000610352</ele>
        <time>2021-10-13T15:55:42.000Z</time>
      </trkpt>
      <trkpt lat="46.21739" lon="4.76646">
        <ele>210.19999694824</ele>
        <time>2021-10-13T15:56:02.000Z</time>
      </trkpt>
      <trkpt lat="46.21714" lon="4.76618">
        <ele>211</ele>
        <time>2021-10-13T15:56:10.000Z</time>
      </trkpt>
      <trkpt lat="46.217" lon="4.76633">
        <ele>211</ele>
        <time>2021-10-13T15:56:15.000Z</time>
      </trkpt>
      <trkpt lat="46.21683" lon="4.7666">
        <ele>209.80000305176</ele>
        <time>2021-10-13T15:56:25.000Z</time>
      </trkpt>
      <trkpt lat="46.21683" lon="4.7666">
        <ele>209.80000305176</ele>
        <time>2021-10-13T15:56:27.000Z</time>
      </trkpt>
      <trkpt lat="46.21677" lon="4.76656">
        <ele>209.60000610352</ele>
        <time>2021-10-13T15:56:33.000Z</time>
      </trkpt>
      <trkpt lat="46.21675" lon="4.76651">
        <ele>209.60000610352</ele>
        <time>2021-10-13T15:56:34.000Z</time>
      </trkpt>
      <trkpt lat="46.21637" lon="4.76537">
        <ele>206.19999694824</ele>
        <time>2021-10-13T15:56:49.000Z</time>
      </trkpt>
      <trkpt lat="46.21596" lon="4.76416">
        <ele>202.39999389648</ele>
        <time>2021-10-13T15:57:01.000Z</time>
      </trkpt>
      <trkpt lat="46.21577" lon="4.76363">
        <ele>201.39999389648</ele>
        <time>2021-10-13T15:57:06.000Z</time>
      </trkpt>
      <trkpt lat="46.21558" lon="4.7631">
        <ele>200.39999389648</ele>
        <time>2021-10-13T15:57:11.000Z</time>
      </trkpt>
      <trkpt lat="46.21534" lon="4.76275">
        <ele>199.60000610352</ele>
        <time>2021-10-13T15:57:15.000Z</time>
      </trkpt>
      <trkpt lat="46.21467" lon="4.76208">
        <ele>196.19999694824</ele>
        <time>2021-10-13T15:57:25.000Z</time>
      </trkpt>
      <trkpt lat="46.21447" lon="4.76184">
        <ele>195.39999389648</ele>
        <time>2021-10-13T15:57:29.000Z</time>
      </trkpt>
      <trkpt lat="46.21396" lon="4.76105">
        <ele>194</ele>
        <time>2021-10-13T15:57:41.000Z</time>
      </trkpt>
      <trkpt lat="46.21368" lon="4.75999">
        <ele>192.80000305176</ele>
        <time>2021-10-13T15:57:55.000Z</time>
      </trkpt>
      <trkpt lat="46.21368" lon="4.75918">
        <ele>192.80000305176</ele>
        <time>2021-10-13T15:58:06.000Z</time>
      </trkpt>
      <trkpt lat="46.2137" lon="4.75905">
        <ele>192.80000305176</ele>
        <time>2021-10-13T15:58:08.000Z</time>
      </trkpt>
      <trkpt lat="46.21368" lon="4.75868">
        <ele>192.60000610352</ele>
        <time>2021-10-13T15:58:16.000Z</time>
      </trkpt>
      <trkpt lat="46.21377" lon="4.75822">
        <ele>193.80000305176</ele>
        <time>2021-10-13T15:58:28.000Z</time>
      </trkpt>
      <trkpt lat="46.21379" lon="4.75814">
        <ele>194</ele>
        <time>2021-10-13T15:58:35.000Z</time>
      </trkpt>
      <trkpt lat="46.2138" lon="4.75801">
        <ele>194</ele>
        <time>2021-10-13T15:58:44.000Z</time>
      </trkpt>
      <trkpt lat="46.21381" lon="4.75795">
        <ele>194</ele>
        <time>2021-10-13T15:58:45.000Z</time>
      </trkpt>
      <trkpt lat="46.21384" lon="4.75781">
        <ele>194</ele>
        <time>2021-10-13T15:58:47.000Z</time>
      </trkpt>
      <trkpt lat="46.21386" lon="4.75767">
        <ele>193.60000610352</ele>
        <time>2021-10-13T15:58:49.000Z</time>
      </trkpt>
      <trkpt lat="46.21393" lon="4.7574">
        <ele>193.39999389648</ele>
        <time>2021-10-13T15:58:53.000Z</time>
      </trkpt>
      <trkpt lat="46.21396" lon="4.75719">
        <ele>192.60000610352</ele>
        <time>2021-10-13T15:58:57.000Z</time>
      </trkpt>
      <trkpt lat="46.21364" lon="4.75701">
        <ele>189.9</ele>
      </trkpt>
      <trkpt lat="46.21306" lon="4.75658">
        <ele>189.7</ele>
        <time>2021-10-13T15:59:14.000Z</time>
      </trkpt>
      <trkpt lat="46.21275" lon="4.75634">
        <ele>190.7</ele>
        <time>2021-10-13T15:59:52.000Z</time>
      </trkpt>
      <trkpt lat="46.21249" lon="4.75619">
        <ele>191.6</ele>
        <time>2021-10-13T15:59:53.000Z</time>
      </trkpt>
      <trkpt lat="46.2124" lon="4.75631">
        <ele>192</ele>
        <time>2021-10-13T16:00:07.000Z</time>
      </trkpt>
    </trkseg>
  </trk>
</gpx>